<?xml version="1.0" encoding="UTF-8" standalone="no" ?><gpx xmlns="http://www.topografix.com/GPX/1/1" xmlns:gpxx="http://www.garmin.com/xmlschemas/GpxExtensions/v3" xmlns:wptx1="http://www.garmin.com/xmlschemas/WaypointExtension/v1" xmlns:gpxtpx="http://www.garmin.com/xmlschemas/TrackPointExtension/v1" creator="GuideVTT.com" version="1.1" xmlns:xsi="http://www.w3.org/2001/XMLSchema-instance" xsi:schemaLocation="http://www.topografix.com/GPX/1/1 http://www.topografix.com/GPX/1/1/gpx.xsd http://www.garmin.com/xmlschemas/GpxExtensions/v3 http://www8.garmin.com/xmlschemas/GpxExtensionsv3.xsd http://www.garmin.com/xmlschemas/WaypointExtension/v1 http://www8.garmin.com/xmlschemas/WaypointExtensionv1.xsd http://www.garmin.com/xmlschemas/TrackPointExtension/v1 http://www.garmin.com/xmlschemas/TrackPointExtensionv1.xsd">
<metadata><link href="http://www.garmin.com"><text>Garmin International</text></link><time>2013-06-22T15:13:50Z</time></metadata>
<trk><name>65lg2022.gpx</name><extensions><gpxx:TrackExtension><gpxx:DisplayColor>Cyan</gpxx:DisplayColor></gpxx:TrackExtension></extensions><trkseg>
<trkpt lat="46.20639" lon="7.4399"><ele></ele><time>2016-5-27T1:44:6Z</time></trkpt>
<trkpt lat="46.20643" lon="7.43994"><ele></ele><time>2016-5-27T1:44:9Z</time></trkpt>
<trkpt lat="46.20655" lon="7.43994"><ele></ele><time>2016-5-27T1:44:12Z</time></trkpt>
<trkpt lat="46.20651" lon="7.43993"><ele></ele><time>2016-5-27T1:44:15Z</time></trkpt>
<trkpt lat="46.20653" lon="7.43993"><ele></ele><time>2016-5-27T1:44:18Z</time></trkpt>
<trkpt lat="46.20651" lon="7.43993"><ele></ele><time>2016-5-27T1:44:21Z</time></trkpt>
<trkpt lat="46.20648" lon="7.43992"><ele></ele><time>2016-5-27T1:44:24Z</time></trkpt>
<trkpt lat="46.20648" lon="7.43991"><ele></ele><time>2016-5-27T1:44:27Z</time></trkpt>
<trkpt lat="46.20648" lon="7.43991"><ele></ele><time>2016-5-27T1:44:30Z</time></trkpt>
<trkpt lat="46.2065" lon="7.43993"><ele></ele><time>2016-5-27T1:44:33Z</time></trkpt>
<trkpt lat="46.20649" lon="7.43992"><ele></ele><time>2016-5-27T1:44:36Z</time></trkpt>
<trkpt lat="46.20643" lon="7.43991"><ele></ele><time>2016-5-27T1:44:39Z</time></trkpt>
<trkpt lat="46.20642" lon="7.4399"><ele></ele><time>2016-5-27T1:44:42Z</time></trkpt>
<trkpt lat="46.20642" lon="7.43991"><ele></ele><time>2016-5-27T1:44:45Z</time></trkpt>
<trkpt lat="46.20643" lon="7.43991"><ele></ele><time>2016-5-27T1:44:48Z</time></trkpt>
<trkpt lat="46.20644" lon="7.43991"><ele></ele><time>2016-5-27T1:44:51Z</time></trkpt>
<trkpt lat="46.20644" lon="7.43991"><ele></ele><time>2016-5-27T1:44:54Z</time></trkpt>
<trkpt lat="46.20644" lon="7.43991"><ele></ele><time>2016-5-27T1:44:57Z</time></trkpt>
<trkpt lat="46.20644" lon="7.43991"><ele></ele><time>2016-5-27T1:45:0Z</time></trkpt>
<trkpt lat="46.20645" lon="7.4399"><ele></ele><time>2016-5-27T1:45:3Z</time></trkpt>
<trkpt lat="46.20646" lon="7.43991"><ele></ele><time>2016-5-27T1:45:6Z</time></trkpt>
<trkpt lat="46.20647" lon="7.43992"><ele></ele><time>2016-5-27T1:45:9Z</time></trkpt>
<trkpt lat="46.20645" lon="7.43991"><ele></ele><time>2016-5-27T1:45:12Z</time></trkpt>
<trkpt lat="46.20645" lon="7.4399"><ele></ele><time>2016-5-27T1:45:15Z</time></trkpt>
<trkpt lat="46.20642" lon="7.43989"><ele></ele><time>2016-5-27T1:45:18Z</time></trkpt>
<trkpt lat="46.20642" lon="7.43989"><ele></ele><time>2016-5-27T1:45:21Z</time></trkpt>
<trkpt lat="46.20643" lon="7.4399"><ele></ele><time>2016-5-27T1:45:24Z</time></trkpt>
<trkpt lat="46.20643" lon="7.4399"><ele></ele><time>2016-5-27T1:45:27Z</time></trkpt>
<trkpt lat="46.20643" lon="7.43988"><ele></ele><time>2016-5-27T1:45:30Z</time></trkpt>
<trkpt lat="46.20652" lon="7.44"><ele></ele><time>2016-5-27T1:45:33Z</time></trkpt>
<trkpt lat="46.20664" lon="7.44021"><ele></ele><time>2016-5-27T1:45:36Z</time></trkpt>
<trkpt lat="46.20678" lon="7.44037"><ele></ele><time>2016-5-27T1:45:39Z</time></trkpt>
<trkpt lat="46.20704" lon="7.44052"><ele></ele><time>2016-5-27T1:45:42Z</time></trkpt>
<trkpt lat="46.20723" lon="7.44061"><ele></ele><time>2016-5-27T1:45:45Z</time></trkpt>
<trkpt lat="46.20745" lon="7.44069"><ele></ele><time>2016-5-27T1:45:48Z</time></trkpt>
<trkpt lat="46.20751" lon="7.44071"><ele></ele><time>2016-5-27T1:45:51Z</time></trkpt>
<trkpt lat="46.20774" lon="7.44073"><ele></ele><time>2016-5-27T1:45:54Z</time></trkpt>
<trkpt lat="46.20795" lon="7.44073"><ele></ele><time>2016-5-27T1:45:57Z</time></trkpt>
<trkpt lat="46.20818" lon="7.44065"><ele></ele><time>2016-5-27T1:46:0Z</time></trkpt>
<trkpt lat="46.20827" lon="7.44061"><ele></ele><time>2016-5-27T1:46:3Z</time></trkpt>
<trkpt lat="46.20844" lon="7.44052"><ele></ele><time>2016-5-27T1:46:6Z</time></trkpt>
<trkpt lat="46.20853" lon="7.44048"><ele></ele><time>2016-5-27T1:46:9Z</time></trkpt>
<trkpt lat="46.2087" lon="7.4404"><ele></ele><time>2016-5-27T1:46:12Z</time></trkpt>
<trkpt lat="46.20892" lon="7.44029"><ele></ele><time>2016-5-27T1:46:15Z</time></trkpt>
<trkpt lat="46.20899" lon="7.44027"><ele></ele><time>2016-5-27T1:46:18Z</time></trkpt>
<trkpt lat="46.20923" lon="7.44036"><ele></ele><time>2016-5-27T1:46:21Z</time></trkpt>
<trkpt lat="46.2094" lon="7.44043"><ele></ele><time>2016-5-27T1:46:24Z</time></trkpt>
<trkpt lat="46.20961" lon="7.44036"><ele></ele><time>2016-5-27T1:46:27Z</time></trkpt>
<trkpt lat="46.20981" lon="7.44018"><ele></ele><time>2016-5-27T1:46:30Z</time></trkpt>
<trkpt lat="46.21001" lon="7.43999"><ele></ele><time>2016-5-27T1:46:33Z</time></trkpt>
<trkpt lat="46.21021" lon="7.4398"><ele></ele><time>2016-5-27T1:46:36Z</time></trkpt>
<trkpt lat="46.21039" lon="7.43959"><ele></ele><time>2016-5-27T1:46:39Z</time></trkpt>
<trkpt lat="46.21054" lon="7.43936"><ele></ele><time>2016-5-27T1:46:42Z</time></trkpt>
<trkpt lat="46.21067" lon="7.43915"><ele></ele><time>2016-5-27T1:46:45Z</time></trkpt>
<trkpt lat="46.21074" lon="7.43906"><ele></ele><time>2016-5-27T1:46:48Z</time></trkpt>
<trkpt lat="46.21091" lon="7.43892"><ele></ele><time>2016-5-27T1:46:51Z</time></trkpt>
<trkpt lat="46.21109" lon="7.4388"><ele></ele><time>2016-5-27T1:46:54Z</time></trkpt>
<trkpt lat="46.21127" lon="7.43868"><ele></ele><time>2016-5-27T1:46:57Z</time></trkpt>
<trkpt lat="46.21144" lon="7.43849"><ele></ele><time>2016-5-27T1:47:0Z</time></trkpt>
<trkpt lat="46.21158" lon="7.43827"><ele></ele><time>2016-5-27T1:47:3Z</time></trkpt>
<trkpt lat="46.21172" lon="7.43805"><ele></ele><time>2016-5-27T1:47:6Z</time></trkpt>
<trkpt lat="46.21184" lon="7.43784"><ele></ele><time>2016-5-27T1:47:9Z</time></trkpt>
<trkpt lat="46.21198" lon="7.43755"><ele></ele><time>2016-5-27T1:47:12Z</time></trkpt>
<trkpt lat="46.21215" lon="7.4373"><ele></ele><time>2016-5-27T1:47:15Z</time></trkpt>
<trkpt lat="46.21221" lon="7.4372"><ele></ele><time>2016-5-27T1:47:18Z</time></trkpt>
<trkpt lat="46.21236" lon="7.43694"><ele></ele><time>2016-5-27T1:47:21Z</time></trkpt>
<trkpt lat="46.21245" lon="7.43685"><ele></ele><time>2016-5-27T1:47:24Z</time></trkpt>
<trkpt lat="46.21261" lon="7.4367"><ele></ele><time>2016-5-27T1:47:27Z</time></trkpt>
<trkpt lat="46.21265" lon="7.43665"><ele></ele><time>2016-5-27T1:47:30Z</time></trkpt>
<trkpt lat="46.21274" lon="7.43654"><ele></ele><time>2016-5-27T1:47:33Z</time></trkpt>
<trkpt lat="46.21285" lon="7.43645"><ele></ele><time>2016-5-27T1:47:36Z</time></trkpt>
<trkpt lat="46.2129" lon="7.43641"><ele></ele><time>2016-5-27T1:47:39Z</time></trkpt>
<trkpt lat="46.21294" lon="7.43636"><ele></ele><time>2016-5-27T1:47:42Z</time></trkpt>
<trkpt lat="46.21296" lon="7.43635"><ele></ele><time>2016-5-27T1:47:45Z</time></trkpt>
<trkpt lat="46.21302" lon="7.43629"><ele></ele><time>2016-5-27T1:47:48Z</time></trkpt>
<trkpt lat="46.21308" lon="7.43627"><ele></ele><time>2016-5-27T1:47:51Z</time></trkpt>
<trkpt lat="46.21309" lon="7.43626"><ele></ele><time>2016-5-27T1:47:54Z</time></trkpt>
<trkpt lat="46.21313" lon="7.43621"><ele></ele><time>2016-5-27T1:47:57Z</time></trkpt>
<trkpt lat="46.2132" lon="7.43612"><ele></ele><time>2016-5-27T1:48:0Z</time></trkpt>
<trkpt lat="46.2133" lon="7.43606"><ele></ele><time>2016-5-27T1:48:3Z</time></trkpt>
<trkpt lat="46.21335" lon="7.43602"><ele></ele><time>2016-5-27T1:48:6Z</time></trkpt>
<trkpt lat="46.21346" lon="7.43593"><ele></ele><time>2016-5-27T1:48:9Z</time></trkpt>
<trkpt lat="46.21354" lon="7.43587"><ele></ele><time>2016-5-27T1:48:12Z</time></trkpt>
<trkpt lat="46.21357" lon="7.43585"><ele></ele><time>2016-5-27T1:48:15Z</time></trkpt>
<trkpt lat="46.21363" lon="7.4358"><ele></ele><time>2016-5-27T1:48:18Z</time></trkpt>
<trkpt lat="46.21374" lon="7.43572"><ele></ele><time>2016-5-27T1:48:21Z</time></trkpt>
<trkpt lat="46.2139" lon="7.4356"><ele></ele><time>2016-5-27T1:48:24Z</time></trkpt>
<trkpt lat="46.21411" lon="7.43538"><ele></ele><time>2016-5-27T1:48:27Z</time></trkpt>
<trkpt lat="46.21421" lon="7.43527"><ele></ele><time>2016-5-27T1:48:30Z</time></trkpt>
<trkpt lat="46.21426" lon="7.43523"><ele></ele><time>2016-5-27T1:48:33Z</time></trkpt>
<trkpt lat="46.21443" lon="7.4351"><ele></ele><time>2016-5-27T1:48:36Z</time></trkpt>
<trkpt lat="46.2146" lon="7.43501"><ele></ele><time>2016-5-27T1:48:39Z</time></trkpt>
<trkpt lat="46.21476" lon="7.43497"><ele></ele><time>2016-5-27T1:48:42Z</time></trkpt>
<trkpt lat="46.21486" lon="7.43496"><ele></ele><time>2016-5-27T1:48:45Z</time></trkpt>
<trkpt lat="46.2151" lon="7.43511"><ele></ele><time>2016-5-27T1:48:48Z</time></trkpt>
<trkpt lat="46.21524" lon="7.43531"><ele></ele><time>2016-5-27T1:48:51Z</time></trkpt>
<trkpt lat="46.21537" lon="7.43546"><ele></ele><time>2016-5-27T1:48:54Z</time></trkpt>
<trkpt lat="46.21554" lon="7.43556"><ele></ele><time>2016-5-27T1:48:57Z</time></trkpt>
<trkpt lat="46.2156" lon="7.43559"><ele></ele><time>2016-5-27T1:49:0Z</time></trkpt>
<trkpt lat="46.21578" lon="7.43562"><ele></ele><time>2016-5-27T1:49:3Z</time></trkpt>
<trkpt lat="46.21585" lon="7.43563"><ele></ele><time>2016-5-27T1:49:6Z</time></trkpt>
<trkpt lat="46.21604" lon="7.43562"><ele></ele><time>2016-5-27T1:49:9Z</time></trkpt>
<trkpt lat="46.21624" lon="7.43564"><ele></ele><time>2016-5-27T1:49:12Z</time></trkpt>
<trkpt lat="46.21632" lon="7.43566"><ele></ele><time>2016-5-27T1:49:15Z</time></trkpt>
<trkpt lat="46.2166" lon="7.43573"><ele></ele><time>2016-5-27T1:49:18Z</time></trkpt>
<trkpt lat="46.21678" lon="7.43578"><ele></ele><time>2016-5-27T1:49:21Z</time></trkpt>
<trkpt lat="46.21682" lon="7.43579"><ele></ele><time>2016-5-27T1:49:24Z</time></trkpt>
<trkpt lat="46.217" lon="7.4358"><ele></ele><time>2016-5-27T1:49:27Z</time></trkpt>
<trkpt lat="46.21713" lon="7.43581"><ele></ele><time>2016-5-27T1:49:30Z</time></trkpt>
<trkpt lat="46.21732" lon="7.43576"><ele></ele><time>2016-5-27T1:49:33Z</time></trkpt>
<trkpt lat="46.21752" lon="7.43571"><ele></ele><time>2016-5-27T1:49:36Z</time></trkpt>
<trkpt lat="46.21757" lon="7.43567"><ele></ele><time>2016-5-27T1:49:39Z</time></trkpt>
<trkpt lat="46.21769" lon="7.43556"><ele></ele><time>2016-5-27T1:49:42Z</time></trkpt>
<trkpt lat="46.21793" lon="7.43541"><ele></ele><time>2016-5-27T1:49:45Z</time></trkpt>
<trkpt lat="46.21808" lon="7.43526"><ele></ele><time>2016-5-27T1:49:48Z</time></trkpt>
<trkpt lat="46.21825" lon="7.43518"><ele></ele><time>2016-5-27T1:49:51Z</time></trkpt>
<trkpt lat="46.21827" lon="7.43512"><ele></ele><time>2016-5-27T1:49:54Z</time></trkpt>
<trkpt lat="46.21815" lon="7.43502"><ele></ele><time>2016-5-27T1:49:57Z</time></trkpt>
<trkpt lat="46.21801" lon="7.43502"><ele></ele><time>2016-5-27T1:50:0Z</time></trkpt>
<trkpt lat="46.21781" lon="7.43512"><ele></ele><time>2016-5-27T1:50:3Z</time></trkpt>
<trkpt lat="46.21764" lon="7.4352"><ele></ele><time>2016-5-27T1:50:6Z</time></trkpt>
<trkpt lat="46.2176" lon="7.43522"><ele></ele><time>2016-5-27T1:50:9Z</time></trkpt>
<trkpt lat="46.21755" lon="7.43523"><ele></ele><time>2016-5-27T1:50:12Z</time></trkpt>
<trkpt lat="46.21745" lon="7.43524"><ele></ele><time>2016-5-27T1:50:15Z</time></trkpt>
<trkpt lat="46.21736" lon="7.43524"><ele></ele><time>2016-5-27T1:50:18Z</time></trkpt>
<trkpt lat="46.21717" lon="7.43519"><ele></ele><time>2016-5-27T1:50:21Z</time></trkpt>
<trkpt lat="46.21696" lon="7.43517"><ele></ele><time>2016-5-27T1:50:24Z</time></trkpt>
<trkpt lat="46.21692" lon="7.43516"><ele></ele><time>2016-5-27T1:50:27Z</time></trkpt>
<trkpt lat="46.21682" lon="7.43509"><ele></ele><time>2016-5-27T1:50:30Z</time></trkpt>
<trkpt lat="46.21671" lon="7.43494"><ele></ele><time>2016-5-27T1:50:33Z</time></trkpt>
<trkpt lat="46.21659" lon="7.43474"><ele></ele><time>2016-5-27T1:50:36Z</time></trkpt>
<trkpt lat="46.21643" lon="7.43459"><ele></ele><time>2016-5-27T1:50:39Z</time></trkpt>
<trkpt lat="46.21627" lon="7.43447"><ele></ele><time>2016-5-27T1:50:42Z</time></trkpt>
<trkpt lat="46.21616" lon="7.43442"><ele></ele><time>2016-5-27T1:50:45Z</time></trkpt>
<trkpt lat="46.216" lon="7.43435"><ele></ele><time>2016-5-27T1:50:48Z</time></trkpt>
<trkpt lat="46.21587" lon="7.43415"><ele></ele><time>2016-5-27T1:50:51Z</time></trkpt>
<trkpt lat="46.21574" lon="7.43396"><ele></ele><time>2016-5-27T1:50:54Z</time></trkpt>
<trkpt lat="46.21561" lon="7.43373"><ele></ele><time>2016-5-27T1:50:57Z</time></trkpt>
<trkpt lat="46.21549" lon="7.43352"><ele></ele><time>2016-5-27T1:51:0Z</time></trkpt>
<trkpt lat="46.21543" lon="7.43344"><ele></ele><time>2016-5-27T1:51:3Z</time></trkpt>
<trkpt lat="46.21534" lon="7.43334"><ele></ele><time>2016-5-27T1:51:6Z</time></trkpt>
<trkpt lat="46.21519" lon="7.4332"><ele></ele><time>2016-5-27T1:51:9Z</time></trkpt>
<trkpt lat="46.2151" lon="7.43312"><ele></ele><time>2016-5-27T1:51:12Z</time></trkpt>
<trkpt lat="46.21493" lon="7.43294"><ele></ele><time>2016-5-27T1:51:15Z</time></trkpt>
<trkpt lat="46.21484" lon="7.43284"><ele></ele><time>2016-5-27T1:51:18Z</time></trkpt>
<trkpt lat="46.21468" lon="7.43262"><ele></ele><time>2016-5-27T1:51:21Z</time></trkpt>
<trkpt lat="46.21457" lon="7.4324"><ele></ele><time>2016-5-27T1:51:24Z</time></trkpt>
<trkpt lat="46.21449" lon="7.43216"><ele></ele><time>2016-5-27T1:51:27Z</time></trkpt>
<trkpt lat="46.21448" lon="7.43205"><ele></ele><time>2016-5-27T1:51:30Z</time></trkpt>
<trkpt lat="46.21444" lon="7.43179"><ele></ele><time>2016-5-27T1:51:33Z</time></trkpt>
<trkpt lat="46.21441" lon="7.43153"><ele></ele><time>2016-5-27T1:51:36Z</time></trkpt>
<trkpt lat="46.21441" lon="7.43125"><ele></ele><time>2016-5-27T1:51:39Z</time></trkpt>
<trkpt lat="46.21436" lon="7.43099"><ele></ele><time>2016-5-27T1:51:42Z</time></trkpt>
<trkpt lat="46.21436" lon="7.43096"><ele></ele><time>2016-5-27T1:51:45Z</time></trkpt>
<trkpt lat="46.21438" lon="7.4308"><ele></ele><time>2016-5-27T1:51:48Z</time></trkpt>
<trkpt lat="46.21437" lon="7.43076"><ele></ele><time>2016-5-27T1:51:51Z</time></trkpt>
<trkpt lat="46.21435" lon="7.43049"><ele></ele><time>2016-5-27T1:51:54Z</time></trkpt>
<trkpt lat="46.21434" lon="7.43034"><ele></ele><time>2016-5-27T1:51:57Z</time></trkpt>
<trkpt lat="46.21431" lon="7.43029"><ele></ele><time>2016-5-27T1:52:0Z</time></trkpt>
<trkpt lat="46.21429" lon="7.43027"><ele></ele><time>2016-5-27T1:52:3Z</time></trkpt>
<trkpt lat="46.21428" lon="7.43024"><ele></ele><time>2016-5-27T1:52:6Z</time></trkpt>
<trkpt lat="46.21425" lon="7.43017"><ele></ele><time>2016-5-27T1:52:9Z</time></trkpt>
<trkpt lat="46.21443" lon="7.43008"><ele></ele><time>2016-5-27T1:52:12Z</time></trkpt>
<trkpt lat="46.21448" lon="7.43006"><ele></ele><time>2016-5-27T1:52:15Z</time></trkpt>
<trkpt lat="46.21441" lon="7.42999"><ele></ele><time>2016-5-27T1:52:18Z</time></trkpt>
<trkpt lat="46.21434" lon="7.42994"><ele></ele><time>2016-5-27T1:52:21Z</time></trkpt>
<trkpt lat="46.21417" lon="7.42983"><ele></ele><time>2016-5-27T1:52:24Z</time></trkpt>
<trkpt lat="46.21397" lon="7.42971"><ele></ele><time>2016-5-27T1:52:27Z</time></trkpt>
<trkpt lat="46.21374" lon="7.42968"><ele></ele><time>2016-5-27T1:52:30Z</time></trkpt>
<trkpt lat="46.21356" lon="7.42977"><ele></ele><time>2016-5-27T1:52:33Z</time></trkpt>
<trkpt lat="46.21343" lon="7.42989"><ele></ele><time>2016-5-27T1:52:36Z</time></trkpt>
<trkpt lat="46.21321" lon="7.43011"><ele></ele><time>2016-5-27T1:52:39Z</time></trkpt>
<trkpt lat="46.21306" lon="7.43027"><ele></ele><time>2016-5-27T1:52:42Z</time></trkpt>
<trkpt lat="46.21293" lon="7.43044"><ele></ele><time>2016-5-27T1:52:45Z</time></trkpt>
<trkpt lat="46.21287" lon="7.43052"><ele></ele><time>2016-5-27T1:52:48Z</time></trkpt>
<trkpt lat="46.2127" lon="7.43079"><ele></ele><time>2016-5-27T1:52:51Z</time></trkpt>
<trkpt lat="46.21252" lon="7.43102"><ele></ele><time>2016-5-27T1:52:54Z</time></trkpt>
<trkpt lat="46.21244" lon="7.43109"><ele></ele><time>2016-5-27T1:52:57Z</time></trkpt>
<trkpt lat="46.21228" lon="7.43123"><ele></ele><time>2016-5-27T1:53:0Z</time></trkpt>
<trkpt lat="46.2121" lon="7.4314"><ele></ele><time>2016-5-27T1:53:3Z</time></trkpt>
<trkpt lat="46.21193" lon="7.43157"><ele></ele><time>2016-5-27T1:53:6Z</time></trkpt>
<trkpt lat="46.21179" lon="7.43174"><ele></ele><time>2016-5-27T1:53:9Z</time></trkpt>
<trkpt lat="46.21172" lon="7.43182"><ele></ele><time>2016-5-27T1:53:12Z</time></trkpt>
<trkpt lat="46.21153" lon="7.43203"><ele></ele><time>2016-5-27T1:53:15Z</time></trkpt>
<trkpt lat="46.21142" lon="7.43217"><ele></ele><time>2016-5-27T1:53:18Z</time></trkpt>
<trkpt lat="46.21136" lon="7.43222"><ele></ele><time>2016-5-27T1:53:21Z</time></trkpt>
<trkpt lat="46.21131" lon="7.43228"><ele></ele><time>2016-5-27T1:53:24Z</time></trkpt>
<trkpt lat="46.21126" lon="7.43234"><ele></ele><time>2016-5-27T1:53:27Z</time></trkpt>
<trkpt lat="46.21111" lon="7.43251"><ele></ele><time>2016-5-27T1:53:30Z</time></trkpt>
<trkpt lat="46.21099" lon="7.43269"><ele></ele><time>2016-5-27T1:53:33Z</time></trkpt>
<trkpt lat="46.21094" lon="7.43274"><ele></ele><time>2016-5-27T1:53:36Z</time></trkpt>
<trkpt lat="46.21075" lon="7.43291"><ele></ele><time>2016-5-27T1:53:39Z</time></trkpt>
<trkpt lat="46.21063" lon="7.43312"><ele></ele><time>2016-5-27T1:53:42Z</time></trkpt>
<trkpt lat="46.21051" lon="7.43339"><ele></ele><time>2016-5-27T1:53:45Z</time></trkpt>
<trkpt lat="46.21045" lon="7.43348"><ele></ele><time>2016-5-27T1:53:48Z</time></trkpt>
<trkpt lat="46.21039" lon="7.43354"><ele></ele><time>2016-5-27T1:53:51Z</time></trkpt>
<trkpt lat="46.21036" lon="7.43356"><ele></ele><time>2016-5-27T1:53:54Z</time></trkpt>
<trkpt lat="46.2103" lon="7.43362"><ele></ele><time>2016-5-27T1:53:57Z</time></trkpt>
<trkpt lat="46.21018" lon="7.43365"><ele></ele><time>2016-5-27T1:54:0Z</time></trkpt>
<trkpt lat="46.21004" lon="7.4337"><ele></ele><time>2016-5-27T1:54:3Z</time></trkpt>
<trkpt lat="46.20997" lon="7.43374"><ele></ele><time>2016-5-27T1:54:6Z</time></trkpt>
<trkpt lat="46.20989" lon="7.43385"><ele></ele><time>2016-5-27T1:54:9Z</time></trkpt>
<trkpt lat="46.20983" lon="7.43395"><ele></ele><time>2016-5-27T1:54:12Z</time></trkpt>
<trkpt lat="46.20964" lon="7.43409"><ele></ele><time>2016-5-27T1:54:15Z</time></trkpt>
<trkpt lat="46.20944" lon="7.43419"><ele></ele><time>2016-5-27T1:54:18Z</time></trkpt>
<trkpt lat="46.20925" lon="7.43436"><ele></ele><time>2016-5-27T1:54:21Z</time></trkpt>
<trkpt lat="46.20921" lon="7.43441"><ele></ele><time>2016-5-27T1:54:24Z</time></trkpt>
<trkpt lat="46.20902" lon="7.43446"><ele></ele><time>2016-5-27T1:54:27Z</time></trkpt>
<trkpt lat="46.20896" lon="7.43444"><ele></ele><time>2016-5-27T1:54:30Z</time></trkpt>
<trkpt lat="46.20877" lon="7.43429"><ele></ele><time>2016-5-27T1:54:33Z</time></trkpt>
<trkpt lat="46.2086" lon="7.43414"><ele></ele><time>2016-5-27T1:54:36Z</time></trkpt>
<trkpt lat="46.20842" lon="7.43408"><ele></ele><time>2016-5-27T1:54:39Z</time></trkpt>
<trkpt lat="46.20849" lon="7.43395"><ele></ele><time>2016-5-27T1:54:42Z</time></trkpt>
<trkpt lat="46.20866" lon="7.43405"><ele></ele><time>2016-5-27T1:54:45Z</time></trkpt>
<trkpt lat="46.20883" lon="7.43413"><ele></ele><time>2016-5-27T1:54:48Z</time></trkpt>
<trkpt lat="46.20895" lon="7.43405"><ele></ele><time>2016-5-27T1:54:51Z</time></trkpt>
<trkpt lat="46.20877" lon="7.43387"><ele></ele><time>2016-5-27T1:54:54Z</time></trkpt>
<trkpt lat="46.20865" lon="7.43378"><ele></ele><time>2016-5-27T1:54:57Z</time></trkpt>
<trkpt lat="46.20847" lon="7.43366"><ele></ele><time>2016-5-27T1:55:0Z</time></trkpt>
<trkpt lat="46.20842" lon="7.43364"><ele></ele><time>2016-5-27T1:55:3Z</time></trkpt>
<trkpt lat="46.20835" lon="7.43362"><ele></ele><time>2016-5-27T1:55:6Z</time></trkpt>
<trkpt lat="46.20818" lon="7.43349"><ele></ele><time>2016-5-27T1:55:9Z</time></trkpt>
<trkpt lat="46.20808" lon="7.43327"><ele></ele><time>2016-5-27T1:55:12Z</time></trkpt>
<trkpt lat="46.20799" lon="7.43301"><ele></ele><time>2016-5-27T1:55:15Z</time></trkpt>
<trkpt lat="46.20786" lon="7.43283"><ele></ele><time>2016-5-27T1:55:18Z</time></trkpt>
<trkpt lat="46.20773" lon="7.43261"><ele></ele><time>2016-5-27T1:55:21Z</time></trkpt>
<trkpt lat="46.20758" lon="7.43242"><ele></ele><time>2016-5-27T1:55:24Z</time></trkpt>
<trkpt lat="46.20749" lon="7.4323"><ele></ele><time>2016-5-27T1:55:27Z</time></trkpt>
<trkpt lat="46.20745" lon="7.43224"><ele></ele><time>2016-5-27T1:55:30Z</time></trkpt>
<trkpt lat="46.20728" lon="7.43208"><ele></ele><time>2016-5-27T1:55:33Z</time></trkpt>
<trkpt lat="46.20722" lon="7.43209"><ele></ele><time>2016-5-27T1:55:36Z</time></trkpt>
<trkpt lat="46.20719" lon="7.43211"><ele></ele><time>2016-5-27T1:55:39Z</time></trkpt>
<trkpt lat="46.20712" lon="7.43213"><ele></ele><time>2016-5-27T1:55:42Z</time></trkpt>
<trkpt lat="46.20694" lon="7.4321"><ele></ele><time>2016-5-27T1:55:45Z</time></trkpt>
<trkpt lat="46.20672" lon="7.43201"><ele></ele><time>2016-5-27T1:55:48Z</time></trkpt>
<trkpt lat="46.20655" lon="7.43189"><ele></ele><time>2016-5-27T1:55:51Z</time></trkpt>
<trkpt lat="46.20637" lon="7.43175"><ele></ele><time>2016-5-27T1:55:54Z</time></trkpt>
<trkpt lat="46.20623" lon="7.43162"><ele></ele><time>2016-5-27T1:55:57Z</time></trkpt>
<trkpt lat="46.20616" lon="7.43152"><ele></ele><time>2016-5-27T1:56:0Z</time></trkpt>
<trkpt lat="46.20604" lon="7.43141"><ele></ele><time>2016-5-27T1:56:3Z</time></trkpt>
<trkpt lat="46.20597" lon="7.43135"><ele></ele><time>2016-5-27T1:56:6Z</time></trkpt>
<trkpt lat="46.20582" lon="7.43119"><ele></ele><time>2016-5-27T1:56:9Z</time></trkpt>
<trkpt lat="46.20571" lon="7.43113"><ele></ele><time>2016-5-27T1:56:12Z</time></trkpt>
<trkpt lat="46.20562" lon="7.43104"><ele></ele><time>2016-5-27T1:56:15Z</time></trkpt>
<trkpt lat="46.20554" lon="7.43096"><ele></ele><time>2016-5-27T1:56:18Z</time></trkpt>
<trkpt lat="46.20542" lon="7.43087"><ele></ele><time>2016-5-27T1:56:21Z</time></trkpt>
<trkpt lat="46.20527" lon="7.43071"><ele></ele><time>2016-5-27T1:56:24Z</time></trkpt>
<trkpt lat="46.20511" lon="7.43055"><ele></ele><time>2016-5-27T1:56:27Z</time></trkpt>
<trkpt lat="46.20502" lon="7.43034"><ele></ele><time>2016-5-27T1:56:30Z</time></trkpt>
<trkpt lat="46.20485" lon="7.43018"><ele></ele><time>2016-5-27T1:56:33Z</time></trkpt>
<trkpt lat="46.20475" lon="7.43009"><ele></ele><time>2016-5-27T1:56:36Z</time></trkpt>
<trkpt lat="46.20457" lon="7.42994"><ele></ele><time>2016-5-27T1:56:39Z</time></trkpt>
<trkpt lat="46.20448" lon="7.42981"><ele></ele><time>2016-5-27T1:56:42Z</time></trkpt>
<trkpt lat="46.20445" lon="7.42977"><ele></ele><time>2016-5-27T1:56:45Z</time></trkpt>
<trkpt lat="46.2044" lon="7.42969"><ele></ele><time>2016-5-27T1:56:48Z</time></trkpt>
<trkpt lat="46.20422" lon="7.42949"><ele></ele><time>2016-5-27T1:56:51Z</time></trkpt>
<trkpt lat="46.20403" lon="7.42932"><ele></ele><time>2016-5-27T1:56:54Z</time></trkpt>
<trkpt lat="46.20387" lon="7.42918"><ele></ele><time>2016-5-27T1:56:57Z</time></trkpt>
<trkpt lat="46.20373" lon="7.42896"><ele></ele><time>2016-5-27T1:57:0Z</time></trkpt>
<trkpt lat="46.20358" lon="7.42875"><ele></ele><time>2016-5-27T1:57:3Z</time></trkpt>
<trkpt lat="46.20346" lon="7.42848"><ele></ele><time>2016-5-27T1:57:6Z</time></trkpt>
<trkpt lat="46.20344" lon="7.42843"><ele></ele><time>2016-5-27T1:57:9Z</time></trkpt>
<trkpt lat="46.20335" lon="7.42828"><ele></ele><time>2016-5-27T1:57:12Z</time></trkpt>
<trkpt lat="46.20322" lon="7.42818"><ele></ele><time>2016-5-27T1:57:15Z</time></trkpt>
<trkpt lat="46.20305" lon="7.42808"><ele></ele><time>2016-5-27T1:57:18Z</time></trkpt>
<trkpt lat="46.20291" lon="7.42792"><ele></ele><time>2016-5-27T1:57:21Z</time></trkpt>
<trkpt lat="46.20282" lon="7.42782"><ele></ele><time>2016-5-27T1:57:24Z</time></trkpt>
<trkpt lat="46.20275" lon="7.42777"><ele></ele><time>2016-5-27T1:57:27Z</time></trkpt>
<trkpt lat="46.20257" lon="7.42764"><ele></ele><time>2016-5-27T1:57:30Z</time></trkpt>
<trkpt lat="46.20246" lon="7.42757"><ele></ele><time>2016-5-27T1:57:33Z</time></trkpt>
<trkpt lat="46.2024" lon="7.42754"><ele></ele><time>2016-5-27T1:57:36Z</time></trkpt>
<trkpt lat="46.20236" lon="7.42752"><ele></ele><time>2016-5-27T1:57:39Z</time></trkpt>
<trkpt lat="46.20235" lon="7.42751"><ele></ele><time>2016-5-27T1:57:42Z</time></trkpt>
<trkpt lat="46.20229" lon="7.42747"><ele></ele><time>2016-5-27T1:57:45Z</time></trkpt>
<trkpt lat="46.20221" lon="7.42745"><ele></ele><time>2016-5-27T1:57:48Z</time></trkpt>
<trkpt lat="46.20211" lon="7.42744"><ele></ele><time>2016-5-27T1:57:51Z</time></trkpt>
<trkpt lat="46.20189" lon="7.42739"><ele></ele><time>2016-5-27T1:57:54Z</time></trkpt>
<trkpt lat="46.20183" lon="7.42737"><ele></ele><time>2016-5-27T1:57:57Z</time></trkpt>
<trkpt lat="46.20165" lon="7.42732"><ele></ele><time>2016-5-27T1:58:0Z</time></trkpt>
<trkpt lat="46.2016" lon="7.42731"><ele></ele><time>2016-5-27T1:58:3Z</time></trkpt>
<trkpt lat="46.20146" lon="7.42728"><ele></ele><time>2016-5-27T1:58:6Z</time></trkpt>
<trkpt lat="46.20132" lon="7.42724"><ele></ele><time>2016-5-27T1:58:9Z</time></trkpt>
<trkpt lat="46.20117" lon="7.42722"><ele></ele><time>2016-5-27T1:58:12Z</time></trkpt>
<trkpt lat="46.2011" lon="7.42723"><ele></ele><time>2016-5-27T1:58:15Z</time></trkpt>
<trkpt lat="46.20103" lon="7.42725"><ele></ele><time>2016-5-27T1:58:18Z</time></trkpt>
<trkpt lat="46.20094" lon="7.42729"><ele></ele><time>2016-5-27T1:58:21Z</time></trkpt>
<trkpt lat="46.2009" lon="7.42732"><ele></ele><time>2016-5-27T1:58:24Z</time></trkpt>
<trkpt lat="46.20071" lon="7.42742"><ele></ele><time>2016-5-27T1:58:27Z</time></trkpt>
<trkpt lat="46.20057" lon="7.42744"><ele></ele><time>2016-5-27T1:58:30Z</time></trkpt>
<trkpt lat="46.20056" lon="7.42744"><ele></ele><time>2016-5-27T1:58:33Z</time></trkpt>
<trkpt lat="46.20041" lon="7.4276"><ele></ele><time>2016-5-27T1:58:36Z</time></trkpt>
<trkpt lat="46.20037" lon="7.42763"><ele></ele><time>2016-5-27T1:58:39Z</time></trkpt>
<trkpt lat="46.20035" lon="7.42765"><ele></ele><time>2016-5-27T1:58:42Z</time></trkpt>
<trkpt lat="46.20021" lon="7.42767"><ele></ele><time>2016-5-27T1:58:45Z</time></trkpt>
<trkpt lat="46.20014" lon="7.42764"><ele></ele><time>2016-5-27T1:58:48Z</time></trkpt>
<trkpt lat="46.20011" lon="7.42761"><ele></ele><time>2016-5-27T1:58:51Z</time></trkpt>
<trkpt lat="46.20005" lon="7.4276"><ele></ele><time>2016-5-27T1:58:54Z</time></trkpt>
<trkpt lat="46.2" lon="7.42754"><ele></ele><time>2016-5-27T1:58:57Z</time></trkpt>
<trkpt lat="46.19993" lon="7.4275"><ele></ele><time>2016-5-27T1:59:0Z</time></trkpt>
<trkpt lat="46.19991" lon="7.4275"><ele></ele><time>2016-5-27T1:59:3Z</time></trkpt>
<trkpt lat="46.19977" lon="7.42743"><ele></ele><time>2016-5-27T1:59:6Z</time></trkpt>
<trkpt lat="46.19964" lon="7.42733"><ele></ele><time>2016-5-27T1:59:9Z</time></trkpt>
<trkpt lat="46.19958" lon="7.42722"><ele></ele><time>2016-5-27T1:59:12Z</time></trkpt>
<trkpt lat="46.19944" lon="7.42703"><ele></ele><time>2016-5-27T1:59:15Z</time></trkpt>
<trkpt lat="46.19925" lon="7.42683"><ele></ele><time>2016-5-27T1:59:18Z</time></trkpt>
<trkpt lat="46.1991" lon="7.42668"><ele></ele><time>2016-5-27T1:59:21Z</time></trkpt>
<trkpt lat="46.19908" lon="7.42665"><ele></ele><time>2016-5-27T1:59:24Z</time></trkpt>
<trkpt lat="46.19891" lon="7.42652"><ele></ele><time>2016-5-27T1:59:27Z</time></trkpt>
<trkpt lat="46.19881" lon="7.42648"><ele></ele><time>2016-5-27T1:59:30Z</time></trkpt>
<trkpt lat="46.19878" lon="7.42647"><ele></ele><time>2016-5-27T1:59:33Z</time></trkpt>
<trkpt lat="46.19866" lon="7.42656"><ele></ele><time>2016-5-27T1:59:36Z</time></trkpt>
<trkpt lat="46.19856" lon="7.42681"><ele></ele><time>2016-5-27T1:59:39Z</time></trkpt>
<trkpt lat="46.19851" lon="7.42708"><ele></ele><time>2016-5-27T1:59:42Z</time></trkpt>
<trkpt lat="46.19851" lon="7.42715"><ele></ele><time>2016-5-27T1:59:45Z</time></trkpt>
<trkpt lat="46.19851" lon="7.4272"><ele></ele><time>2016-5-27T1:59:48Z</time></trkpt>
<trkpt lat="46.19851" lon="7.42729"><ele></ele><time>2016-5-27T1:59:51Z</time></trkpt>
<trkpt lat="46.19851" lon="7.42734"><ele></ele><time>2016-5-27T1:59:54Z</time></trkpt>
<trkpt lat="46.19851" lon="7.42735"><ele></ele><time>2016-5-27T1:59:57Z</time></trkpt>
<trkpt lat="46.19852" lon="7.42736"><ele></ele><time>2016-5-27T2:0:0Z</time></trkpt>
<trkpt lat="46.19852" lon="7.42745"><ele></ele><time>2016-5-27T2:0:3Z</time></trkpt>
<trkpt lat="46.19856" lon="7.42763"><ele></ele><time>2016-5-27T2:0:6Z</time></trkpt>
<trkpt lat="46.19856" lon="7.42756"><ele></ele><time>2016-5-27T2:0:9Z</time></trkpt>
<trkpt lat="46.19853" lon="7.42744"><ele></ele><time>2016-5-27T2:0:12Z</time></trkpt>
<trkpt lat="46.19851" lon="7.42742"><ele></ele><time>2016-5-27T2:0:15Z</time></trkpt>
<trkpt lat="46.19838" lon="7.4275"><ele></ele><time>2016-5-27T2:0:18Z</time></trkpt>
<trkpt lat="46.19818" lon="7.42759"><ele></ele><time>2016-5-27T2:0:21Z</time></trkpt>
<trkpt lat="46.19815" lon="7.42761"><ele></ele><time>2016-5-27T2:0:24Z</time></trkpt>
<trkpt lat="46.19804" lon="7.42762"><ele></ele><time>2016-5-27T2:0:27Z</time></trkpt>
<trkpt lat="46.19788" lon="7.42766"><ele></ele><time>2016-5-27T2:0:30Z</time></trkpt>
<trkpt lat="46.19767" lon="7.42773"><ele></ele><time>2016-5-27T2:0:33Z</time></trkpt>
<trkpt lat="46.19762" lon="7.42773"><ele></ele><time>2016-5-27T2:0:36Z</time></trkpt>
<trkpt lat="46.19748" lon="7.42769"><ele></ele><time>2016-5-27T2:0:39Z</time></trkpt>
<trkpt lat="46.19729" lon="7.42763"><ele></ele><time>2016-5-27T2:0:42Z</time></trkpt>
<trkpt lat="46.19728" lon="7.42761"><ele></ele><time>2016-5-27T2:0:45Z</time></trkpt>
<trkpt lat="46.19711" lon="7.42752"><ele></ele><time>2016-5-27T2:0:48Z</time></trkpt>
<trkpt lat="46.19708" lon="7.42749"><ele></ele><time>2016-5-27T2:0:51Z</time></trkpt>
<trkpt lat="46.197" lon="7.42742"><ele></ele><time>2016-5-27T2:0:54Z</time></trkpt>
<trkpt lat="46.19696" lon="7.42738"><ele></ele><time>2016-5-27T2:0:57Z</time></trkpt>
<trkpt lat="46.19692" lon="7.42736"><ele></ele><time>2016-5-27T2:1:0Z</time></trkpt>
<trkpt lat="46.19686" lon="7.42735"><ele></ele><time>2016-5-27T2:1:3Z</time></trkpt>
<trkpt lat="46.19683" lon="7.42736"><ele></ele><time>2016-5-27T2:1:6Z</time></trkpt>
<trkpt lat="46.1968" lon="7.42737"><ele></ele><time>2016-5-27T2:1:9Z</time></trkpt>
<trkpt lat="46.19672" lon="7.42738"><ele></ele><time>2016-5-27T2:1:12Z</time></trkpt>
<trkpt lat="46.19653" lon="7.42736"><ele></ele><time>2016-5-27T2:1:15Z</time></trkpt>
<trkpt lat="46.19635" lon="7.4273"><ele></ele><time>2016-5-27T2:1:18Z</time></trkpt>
<trkpt lat="46.19626" lon="7.42729"><ele></ele><time>2016-5-27T2:1:21Z</time></trkpt>
<trkpt lat="46.19622" lon="7.42729"><ele></ele><time>2016-5-27T2:1:24Z</time></trkpt>
<trkpt lat="46.19619" lon="7.42728"><ele></ele><time>2016-5-27T2:1:27Z</time></trkpt>
<trkpt lat="46.19602" lon="7.42721"><ele></ele><time>2016-5-27T2:1:30Z</time></trkpt>
<trkpt lat="46.19584" lon="7.42714"><ele></ele><time>2016-5-27T2:1:33Z</time></trkpt>
<trkpt lat="46.19566" lon="7.42708"><ele></ele><time>2016-5-27T2:1:36Z</time></trkpt>
<trkpt lat="46.19548" lon="7.42704"><ele></ele><time>2016-5-27T2:1:39Z</time></trkpt>
<trkpt lat="46.19528" lon="7.42707"><ele></ele><time>2016-5-27T2:1:42Z</time></trkpt>
<trkpt lat="46.19511" lon="7.42713"><ele></ele><time>2016-5-27T2:1:45Z</time></trkpt>
<trkpt lat="46.19501" lon="7.42737"><ele></ele><time>2016-5-27T2:1:48Z</time></trkpt>
<trkpt lat="46.19493" lon="7.42764"><ele></ele><time>2016-5-27T2:1:51Z</time></trkpt>
<trkpt lat="46.19488" lon="7.42793"><ele></ele><time>2016-5-27T2:1:54Z</time></trkpt>
<trkpt lat="46.19481" lon="7.4282"><ele></ele><time>2016-5-27T2:1:57Z</time></trkpt>
<trkpt lat="46.19471" lon="7.42845"><ele></ele><time>2016-5-27T2:2:0Z</time></trkpt>
<trkpt lat="46.19456" lon="7.42872"><ele></ele><time>2016-5-27T2:2:3Z</time></trkpt>
<trkpt lat="46.19443" lon="7.42889"><ele></ele><time>2016-5-27T2:2:6Z</time></trkpt>
<trkpt lat="46.19438" lon="7.42912"><ele></ele><time>2016-5-27T2:2:9Z</time></trkpt>
<trkpt lat="46.19454" lon="7.42906"><ele></ele><time>2016-5-27T2:2:12Z</time></trkpt>
<trkpt lat="46.19468" lon="7.42888"><ele></ele><time>2016-5-27T2:2:15Z</time></trkpt>
<trkpt lat="46.19483" lon="7.42872"><ele></ele><time>2016-5-27T2:2:18Z</time></trkpt>
<trkpt lat="46.19499" lon="7.42853"><ele></ele><time>2016-5-27T2:2:21Z</time></trkpt>
<trkpt lat="46.19514" lon="7.42835"><ele></ele><time>2016-5-27T2:2:24Z</time></trkpt>
<trkpt lat="46.19525" lon="7.428"><ele></ele><time>2016-5-27T2:2:27Z</time></trkpt>
<trkpt lat="46.19533" lon="7.42787"><ele></ele><time>2016-5-27T2:2:30Z</time></trkpt>
<trkpt lat="46.19541" lon="7.42806"><ele></ele><time>2016-5-27T2:2:33Z</time></trkpt>
<trkpt lat="46.19538" lon="7.42815"><ele></ele><time>2016-5-27T2:2:36Z</time></trkpt>
<trkpt lat="46.19526" lon="7.42835"><ele></ele><time>2016-5-27T2:2:39Z</time></trkpt>
<trkpt lat="46.19514" lon="7.42871"><ele></ele><time>2016-5-27T2:2:42Z</time></trkpt>
<trkpt lat="46.19507" lon="7.42898"><ele></ele><time>2016-5-27T2:2:45Z</time></trkpt>
<trkpt lat="46.19501" lon="7.42923"><ele></ele><time>2016-5-27T2:2:48Z</time></trkpt>
<trkpt lat="46.19493" lon="7.42947"><ele></ele><time>2016-5-27T2:2:51Z</time></trkpt>
<trkpt lat="46.19483" lon="7.4297"><ele></ele><time>2016-5-27T2:2:54Z</time></trkpt>
<trkpt lat="46.19471" lon="7.42992"><ele></ele><time>2016-5-27T2:2:57Z</time></trkpt>
<trkpt lat="46.19466" lon="7.43025"><ele></ele><time>2016-5-27T2:3:0Z</time></trkpt>
<trkpt lat="46.19465" lon="7.43051"><ele></ele><time>2016-5-27T2:3:3Z</time></trkpt>
<trkpt lat="46.19464" lon="7.4308"><ele></ele><time>2016-5-27T2:3:6Z</time></trkpt>
<trkpt lat="46.19463" lon="7.431"><ele></ele><time>2016-5-27T2:3:9Z</time></trkpt>
<trkpt lat="46.19466" lon="7.43129"><ele></ele><time>2016-5-27T2:3:12Z</time></trkpt>
<trkpt lat="46.19471" lon="7.43152"><ele></ele><time>2016-5-27T2:3:15Z</time></trkpt>
<trkpt lat="46.19468" lon="7.43179"><ele></ele><time>2016-5-27T2:3:18Z</time></trkpt>
<trkpt lat="46.19466" lon="7.43212"><ele></ele><time>2016-5-27T2:3:21Z</time></trkpt>
<trkpt lat="46.19467" lon="7.43219"><ele></ele><time>2016-5-27T2:3:24Z</time></trkpt>
<trkpt lat="46.1947" lon="7.43247"><ele></ele><time>2016-5-27T2:3:27Z</time></trkpt>
<trkpt lat="46.1947" lon="7.43265"><ele></ele><time>2016-5-27T2:3:30Z</time></trkpt>
<trkpt lat="46.19467" lon="7.43286"><ele></ele><time>2016-5-27T2:3:33Z</time></trkpt>
<trkpt lat="46.19464" lon="7.43303"><ele></ele><time>2016-5-27T2:3:36Z</time></trkpt>
<trkpt lat="46.19463" lon="7.43312"><ele></ele><time>2016-5-27T2:3:39Z</time></trkpt>
<trkpt lat="46.19459" lon="7.43337"><ele></ele><time>2016-5-27T2:3:42Z</time></trkpt>
<trkpt lat="46.19459" lon="7.43343"><ele></ele><time>2016-5-27T2:3:45Z</time></trkpt>
<trkpt lat="46.1946" lon="7.43345"><ele></ele><time>2016-5-27T2:3:48Z</time></trkpt>
<trkpt lat="46.19454" lon="7.4337"><ele></ele><time>2016-5-27T2:3:51Z</time></trkpt>
<trkpt lat="46.19448" lon="7.43389"><ele></ele><time>2016-5-27T2:3:54Z</time></trkpt>
<trkpt lat="46.19437" lon="7.4341"><ele></ele><time>2016-5-27T2:3:57Z</time></trkpt>
<trkpt lat="46.19427" lon="7.43432"><ele></ele><time>2016-5-27T2:4:0Z</time></trkpt>
<trkpt lat="46.19427" lon="7.43455"><ele></ele><time>2016-5-27T2:4:3Z</time></trkpt>
<trkpt lat="46.19429" lon="7.43476"><ele></ele><time>2016-5-27T2:4:6Z</time></trkpt>
<trkpt lat="46.19429" lon="7.43482"><ele></ele><time>2016-5-27T2:4:9Z</time></trkpt>
<trkpt lat="46.1943" lon="7.43508"><ele></ele><time>2016-5-27T2:4:12Z</time></trkpt>
<trkpt lat="46.1943" lon="7.43517"><ele></ele><time>2016-5-27T2:4:15Z</time></trkpt>
<trkpt lat="46.1943" lon="7.43521"><ele></ele><time>2016-5-27T2:4:18Z</time></trkpt>
<trkpt lat="46.19429" lon="7.43533"><ele></ele><time>2016-5-27T2:4:21Z</time></trkpt>
<trkpt lat="46.19429" lon="7.43539"><ele></ele><time>2016-5-27T2:4:24Z</time></trkpt>
<trkpt lat="46.19429" lon="7.43542"><ele></ele><time>2016-5-27T2:4:27Z</time></trkpt>
<trkpt lat="46.19429" lon="7.43544"><ele></ele><time>2016-5-27T2:4:30Z</time></trkpt>
<trkpt lat="46.19431" lon="7.43548"><ele></ele><time>2016-5-27T2:4:33Z</time></trkpt>
<trkpt lat="46.19431" lon="7.4355"><ele></ele><time>2016-5-27T2:4:36Z</time></trkpt>
<trkpt lat="46.19433" lon="7.43558"><ele></ele><time>2016-5-27T2:4:39Z</time></trkpt>
<trkpt lat="46.19434" lon="7.43561"><ele></ele><time>2016-5-27T2:4:42Z</time></trkpt>
<trkpt lat="46.19435" lon="7.43565"><ele></ele><time>2016-5-27T2:4:45Z</time></trkpt>
<trkpt lat="46.19438" lon="7.43577"><ele></ele><time>2016-5-27T2:4:48Z</time></trkpt>
<trkpt lat="46.19438" lon="7.4358"><ele></ele><time>2016-5-27T2:4:51Z</time></trkpt>
<trkpt lat="46.19438" lon="7.43582"><ele></ele><time>2016-5-27T2:4:54Z</time></trkpt>
<trkpt lat="46.19441" lon="7.43607"><ele></ele><time>2016-5-27T2:4:57Z</time></trkpt>
<trkpt lat="46.19443" lon="7.43614"><ele></ele><time>2016-5-27T2:5:0Z</time></trkpt>
<trkpt lat="46.19443" lon="7.43619"><ele></ele><time>2016-5-27T2:5:3Z</time></trkpt>
<trkpt lat="46.19441" lon="7.43646"><ele></ele><time>2016-5-27T2:5:6Z</time></trkpt>
<trkpt lat="46.19439" lon="7.43661"><ele></ele><time>2016-5-27T2:5:9Z</time></trkpt>
<trkpt lat="46.1944" lon="7.43687"><ele></ele><time>2016-5-27T2:5:12Z</time></trkpt>
<trkpt lat="46.1944" lon="7.43698"><ele></ele><time>2016-5-27T2:5:15Z</time></trkpt>
<trkpt lat="46.19449" lon="7.43717"><ele></ele><time>2016-5-27T2:5:18Z</time></trkpt>
<trkpt lat="46.19453" lon="7.43741"><ele></ele><time>2016-5-27T2:5:21Z</time></trkpt>
<trkpt lat="46.19451" lon="7.43768"><ele></ele><time>2016-5-27T2:5:24Z</time></trkpt>
<trkpt lat="46.19448" lon="7.43793"><ele></ele><time>2016-5-27T2:5:27Z</time></trkpt>
<trkpt lat="46.19444" lon="7.4382"><ele></ele><time>2016-5-27T2:5:30Z</time></trkpt>
<trkpt lat="46.19439" lon="7.43843"><ele></ele><time>2016-5-27T2:5:33Z</time></trkpt>
<trkpt lat="46.19431" lon="7.43871"><ele></ele><time>2016-5-27T2:5:36Z</time></trkpt>
<trkpt lat="46.19424" lon="7.43896"><ele></ele><time>2016-5-27T2:5:39Z</time></trkpt>
<trkpt lat="46.19423" lon="7.43923"><ele></ele><time>2016-5-27T2:5:42Z</time></trkpt>
<trkpt lat="46.19425" lon="7.4395"><ele></ele><time>2016-5-27T2:5:45Z</time></trkpt>
<trkpt lat="46.19429" lon="7.43977"><ele></ele><time>2016-5-27T2:5:48Z</time></trkpt>
<trkpt lat="46.19431" lon="7.44004"><ele></ele><time>2016-5-27T2:5:51Z</time></trkpt>
<trkpt lat="46.19431" lon="7.4403"><ele></ele><time>2016-5-27T2:5:54Z</time></trkpt>
<trkpt lat="46.19432" lon="7.4406"><ele></ele><time>2016-5-27T2:5:57Z</time></trkpt>
<trkpt lat="46.19434" lon="7.44062"><ele></ele><time>2016-5-27T2:6:0Z</time></trkpt>
<trkpt lat="46.19438" lon="7.44054"><ele></ele><time>2016-5-27T2:6:3Z</time></trkpt>
<trkpt lat="46.19442" lon="7.44028"><ele></ele><time>2016-5-27T2:6:6Z</time></trkpt>
<trkpt lat="46.19446" lon="7.44004"><ele></ele><time>2016-5-27T2:6:9Z</time></trkpt>
<trkpt lat="46.19455" lon="7.43981"><ele></ele><time>2016-5-27T2:6:12Z</time></trkpt>
<trkpt lat="46.19466" lon="7.43949"><ele></ele><time>2016-5-27T2:6:15Z</time></trkpt>
<trkpt lat="46.19478" lon="7.43928"><ele></ele><time>2016-5-27T2:6:18Z</time></trkpt>
<trkpt lat="46.19492" lon="7.43907"><ele></ele><time>2016-5-27T2:6:21Z</time></trkpt>
<trkpt lat="46.19504" lon="7.43887"><ele></ele><time>2016-5-27T2:6:24Z</time></trkpt>
<trkpt lat="46.19519" lon="7.43869"><ele></ele><time>2016-5-27T2:6:27Z</time></trkpt>
<trkpt lat="46.19524" lon="7.43859"><ele></ele><time>2016-5-27T2:6:30Z</time></trkpt>
<trkpt lat="46.19526" lon="7.43875"><ele></ele><time>2016-5-27T2:6:33Z</time></trkpt>
<trkpt lat="46.19515" lon="7.43895"><ele></ele><time>2016-5-27T2:6:36Z</time></trkpt>
<trkpt lat="46.1951" lon="7.43922"><ele></ele><time>2016-5-27T2:6:39Z</time></trkpt>
<trkpt lat="46.1951" lon="7.43927"><ele></ele><time>2016-5-27T2:6:42Z</time></trkpt>
<trkpt lat="46.19508" lon="7.43937"><ele></ele><time>2016-5-27T2:6:45Z</time></trkpt>
<trkpt lat="46.19509" lon="7.43964"><ele></ele><time>2016-5-27T2:6:48Z</time></trkpt>
<trkpt lat="46.19509" lon="7.43996"><ele></ele><time>2016-5-27T2:6:51Z</time></trkpt>
<trkpt lat="46.1951" lon="7.44"><ele></ele><time>2016-5-27T2:6:54Z</time></trkpt>
<trkpt lat="46.19515" lon="7.44025"><ele></ele><time>2016-5-27T2:6:57Z</time></trkpt>
<trkpt lat="46.19519" lon="7.44051"><ele></ele><time>2016-5-27T2:7:0Z</time></trkpt>
<trkpt lat="46.19519" lon="7.44055"><ele></ele><time>2016-5-27T2:7:3Z</time></trkpt>
<trkpt lat="46.19525" lon="7.44073"><ele></ele><time>2016-5-27T2:7:6Z</time></trkpt>
<trkpt lat="46.19527" lon="7.44088"><ele></ele><time>2016-5-27T2:7:9Z</time></trkpt>
<trkpt lat="46.19531" lon="7.4411"><ele></ele><time>2016-5-27T2:7:12Z</time></trkpt>
<trkpt lat="46.19531" lon="7.44116"><ele></ele><time>2016-5-27T2:7:15Z</time></trkpt>
<trkpt lat="46.19531" lon="7.44128"><ele></ele><time>2016-5-27T2:7:18Z</time></trkpt>
<trkpt lat="46.19537" lon="7.4415"><ele></ele><time>2016-5-27T2:7:21Z</time></trkpt>
<trkpt lat="46.19537" lon="7.44157"><ele></ele><time>2016-5-27T2:7:24Z</time></trkpt>
<trkpt lat="46.19538" lon="7.4416"><ele></ele><time>2016-5-27T2:7:27Z</time></trkpt>
<trkpt lat="46.19544" lon="7.44186"><ele></ele><time>2016-5-27T2:7:30Z</time></trkpt>
<trkpt lat="46.19546" lon="7.44195"><ele></ele><time>2016-5-27T2:7:33Z</time></trkpt>
<trkpt lat="46.19548" lon="7.44209"><ele></ele><time>2016-5-27T2:7:36Z</time></trkpt>
<trkpt lat="46.1955" lon="7.44212"><ele></ele><time>2016-5-27T2:7:39Z</time></trkpt>
<trkpt lat="46.19551" lon="7.44215"><ele></ele><time>2016-5-27T2:7:42Z</time></trkpt>
<trkpt lat="46.19553" lon="7.44223"><ele></ele><time>2016-5-27T2:7:45Z</time></trkpt>
<trkpt lat="46.19561" lon="7.44252"><ele></ele><time>2016-5-27T2:7:48Z</time></trkpt>
<trkpt lat="46.19566" lon="7.44271"><ele></ele><time>2016-5-27T2:7:51Z</time></trkpt>
<trkpt lat="46.19569" lon="7.44285"><ele></ele><time>2016-5-27T2:7:54Z</time></trkpt>
<trkpt lat="46.19569" lon="7.44288"><ele></ele><time>2016-5-27T2:7:57Z</time></trkpt>
<trkpt lat="46.19573" lon="7.443"><ele></ele><time>2016-5-27T2:8:0Z</time></trkpt>
<trkpt lat="46.19577" lon="7.44324"><ele></ele><time>2016-5-27T2:8:3Z</time></trkpt>
<trkpt lat="46.19582" lon="7.44348"><ele></ele><time>2016-5-27T2:8:6Z</time></trkpt>
<trkpt lat="46.19587" lon="7.44372"><ele></ele><time>2016-5-27T2:8:9Z</time></trkpt>
<trkpt lat="46.19589" lon="7.44387"><ele></ele><time>2016-5-27T2:8:12Z</time></trkpt>
<trkpt lat="46.19599" lon="7.44409"><ele></ele><time>2016-5-27T2:8:15Z</time></trkpt>
<trkpt lat="46.19607" lon="7.44432"><ele></ele><time>2016-5-27T2:8:18Z</time></trkpt>
<trkpt lat="46.19611" lon="7.44444"><ele></ele><time>2016-5-27T2:8:21Z</time></trkpt>
<trkpt lat="46.19623" lon="7.44471"><ele></ele><time>2016-5-27T2:8:24Z</time></trkpt>
<trkpt lat="46.19632" lon="7.4449"><ele></ele><time>2016-5-27T2:8:27Z</time></trkpt>
<trkpt lat="46.19635" lon="7.44497"><ele></ele><time>2016-5-27T2:8:30Z</time></trkpt>
<trkpt lat="46.19643" lon="7.44506"><ele></ele><time>2016-5-27T2:8:33Z</time></trkpt>
<trkpt lat="46.19654" lon="7.44535"><ele></ele><time>2016-5-27T2:8:36Z</time></trkpt>
<trkpt lat="46.19661" lon="7.4456"><ele></ele><time>2016-5-27T2:8:39Z</time></trkpt>
<trkpt lat="46.19668" lon="7.44585"><ele></ele><time>2016-5-27T2:8:42Z</time></trkpt>
<trkpt lat="46.1967" lon="7.44607"><ele></ele><time>2016-5-27T2:8:45Z</time></trkpt>
<trkpt lat="46.19671" lon="7.44631"><ele></ele><time>2016-5-27T2:8:48Z</time></trkpt>
<trkpt lat="46.19673" lon="7.44658"><ele></ele><time>2016-5-27T2:8:51Z</time></trkpt>
<trkpt lat="46.19673" lon="7.44665"><ele></ele><time>2016-5-27T2:8:54Z</time></trkpt>
<trkpt lat="46.19674" lon="7.44673"><ele></ele><time>2016-5-27T2:8:57Z</time></trkpt>
<trkpt lat="46.19671" lon="7.44686"><ele></ele><time>2016-5-27T2:9:0Z</time></trkpt>
<trkpt lat="46.19669" lon="7.44703"><ele></ele><time>2016-5-27T2:9:3Z</time></trkpt>
<trkpt lat="46.19667" lon="7.4471"><ele></ele><time>2016-5-27T2:9:6Z</time></trkpt>
<trkpt lat="46.19667" lon="7.44711"><ele></ele><time>2016-5-27T2:9:9Z</time></trkpt>
<trkpt lat="46.19666" lon="7.44725"><ele></ele><time>2016-5-27T2:9:12Z</time></trkpt>
<trkpt lat="46.19665" lon="7.4474"><ele></ele><time>2016-5-27T2:9:15Z</time></trkpt>
<trkpt lat="46.19664" lon="7.44762"><ele></ele><time>2016-5-27T2:9:18Z</time></trkpt>
<trkpt lat="46.19665" lon="7.44773"><ele></ele><time>2016-5-27T2:9:21Z</time></trkpt>
<trkpt lat="46.19664" lon="7.44782"><ele></ele><time>2016-5-27T2:9:24Z</time></trkpt>
<trkpt lat="46.19663" lon="7.44787"><ele></ele><time>2016-5-27T2:9:27Z</time></trkpt>
<trkpt lat="46.19661" lon="7.44793"><ele></ele><time>2016-5-27T2:9:30Z</time></trkpt>
<trkpt lat="46.19652" lon="7.44817"><ele></ele><time>2016-5-27T2:9:33Z</time></trkpt>
<trkpt lat="46.19643" lon="7.4484"><ele></ele><time>2016-5-27T2:9:36Z</time></trkpt>
<trkpt lat="46.1963" lon="7.44859"><ele></ele><time>2016-5-27T2:9:39Z</time></trkpt>
<trkpt lat="46.19612" lon="7.44871"><ele></ele><time>2016-5-27T2:9:42Z</time></trkpt>
<trkpt lat="46.19594" lon="7.44877"><ele></ele><time>2016-5-27T2:9:45Z</time></trkpt>
<trkpt lat="46.19581" lon="7.44881"><ele></ele><time>2016-5-27T2:9:48Z</time></trkpt>
<trkpt lat="46.19567" lon="7.44895"><ele></ele><time>2016-5-27T2:9:51Z</time></trkpt>
<trkpt lat="46.19567" lon="7.449"><ele></ele><time>2016-5-27T2:9:54Z</time></trkpt>
<trkpt lat="46.19557" lon="7.44921"><ele></ele><time>2016-5-27T2:9:57Z</time></trkpt>
<trkpt lat="46.1955" lon="7.44951"><ele></ele><time>2016-5-27T2:10:0Z</time></trkpt>
<trkpt lat="46.19543" lon="7.44976"><ele></ele><time>2016-5-27T2:10:3Z</time></trkpt>
<trkpt lat="46.19539" lon="7.44995"><ele></ele><time>2016-5-27T2:10:6Z</time></trkpt>
<trkpt lat="46.19535" lon="7.45021"><ele></ele><time>2016-5-27T2:10:9Z</time></trkpt>
<trkpt lat="46.19529" lon="7.45046"><ele></ele><time>2016-5-27T2:10:12Z</time></trkpt>
<trkpt lat="46.19529" lon="7.45047"><ele></ele><time>2016-5-27T2:10:15Z</time></trkpt>
<trkpt lat="46.19525" lon="7.45061"><ele></ele><time>2016-5-27T2:10:18Z</time></trkpt>
<trkpt lat="46.19525" lon="7.45063"><ele></ele><time>2016-5-27T2:10:21Z</time></trkpt>
<trkpt lat="46.19524" lon="7.45072"><ele></ele><time>2016-5-27T2:10:24Z</time></trkpt>
<trkpt lat="46.19521" lon="7.45088"><ele></ele><time>2016-5-27T2:10:27Z</time></trkpt>
<trkpt lat="46.1952" lon="7.45093"><ele></ele><time>2016-5-27T2:10:30Z</time></trkpt>
<trkpt lat="46.19519" lon="7.45098"><ele></ele><time>2016-5-27T2:10:33Z</time></trkpt>
<trkpt lat="46.19516" lon="7.45117"><ele></ele><time>2016-5-27T2:10:36Z</time></trkpt>
<trkpt lat="46.19514" lon="7.4513"><ele></ele><time>2016-5-27T2:10:39Z</time></trkpt>
<trkpt lat="46.19514" lon="7.45138"><ele></ele><time>2016-5-27T2:10:42Z</time></trkpt>
<trkpt lat="46.19514" lon="7.45151"><ele></ele><time>2016-5-27T2:10:45Z</time></trkpt>
<trkpt lat="46.19518" lon="7.45166"><ele></ele><time>2016-5-27T2:10:48Z</time></trkpt>
<trkpt lat="46.19521" lon="7.45188"><ele></ele><time>2016-5-27T2:10:51Z</time></trkpt>
<trkpt lat="46.19522" lon="7.45219"><ele></ele><time>2016-5-27T2:10:54Z</time></trkpt>
<trkpt lat="46.19525" lon="7.45225"><ele></ele><time>2016-5-27T2:10:57Z</time></trkpt>
<trkpt lat="46.1953" lon="7.4525"><ele></ele><time>2016-5-27T2:11:0Z</time></trkpt>
<trkpt lat="46.19534" lon="7.45276"><ele></ele><time>2016-5-27T2:11:3Z</time></trkpt>
<trkpt lat="46.19538" lon="7.45292"><ele></ele><time>2016-5-27T2:11:6Z</time></trkpt>
<trkpt lat="46.19541" lon="7.45314"><ele></ele><time>2016-5-27T2:11:9Z</time></trkpt>
<trkpt lat="46.19551" lon="7.45337"><ele></ele><time>2016-5-27T2:11:12Z</time></trkpt>
<trkpt lat="46.19561" lon="7.45363"><ele></ele><time>2016-5-27T2:11:15Z</time></trkpt>
<trkpt lat="46.19567" lon="7.45387"><ele></ele><time>2016-5-27T2:11:18Z</time></trkpt>
<trkpt lat="46.19569" lon="7.45412"><ele></ele><time>2016-5-27T2:11:21Z</time></trkpt>
<trkpt lat="46.1957" lon="7.45425"><ele></ele><time>2016-5-27T2:11:24Z</time></trkpt>
<trkpt lat="46.19572" lon="7.45438"><ele></ele><time>2016-5-27T2:11:27Z</time></trkpt>
<trkpt lat="46.19577" lon="7.45463"><ele></ele><time>2016-5-27T2:11:30Z</time></trkpt>
<trkpt lat="46.19584" lon="7.45488"><ele></ele><time>2016-5-27T2:11:33Z</time></trkpt>
<trkpt lat="46.19586" lon="7.45513"><ele></ele><time>2016-5-27T2:11:36Z</time></trkpt>
<trkpt lat="46.19587" lon="7.45524"><ele></ele><time>2016-5-27T2:11:39Z</time></trkpt>
<trkpt lat="46.19587" lon="7.45537"><ele></ele><time>2016-5-27T2:11:42Z</time></trkpt>
<trkpt lat="46.19586" lon="7.4555"><ele></ele><time>2016-5-27T2:11:45Z</time></trkpt>
<trkpt lat="46.19585" lon="7.45574"><ele></ele><time>2016-5-27T2:11:48Z</time></trkpt>
<trkpt lat="46.19584" lon="7.45584"><ele></ele><time>2016-5-27T2:11:51Z</time></trkpt>
<trkpt lat="46.19583" lon="7.45593"><ele></ele><time>2016-5-27T2:11:54Z</time></trkpt>
<trkpt lat="46.19583" lon="7.45605"><ele></ele><time>2016-5-27T2:11:57Z</time></trkpt>
<trkpt lat="46.19583" lon="7.45615"><ele></ele><time>2016-5-27T2:12:0Z</time></trkpt>
<trkpt lat="46.19583" lon="7.45621"><ele></ele><time>2016-5-27T2:12:3Z</time></trkpt>
<trkpt lat="46.19589" lon="7.4564"><ele></ele><time>2016-5-27T2:12:6Z</time></trkpt>
<trkpt lat="46.19591" lon="7.45645"><ele></ele><time>2016-5-27T2:12:9Z</time></trkpt>
<trkpt lat="46.19593" lon="7.45655"><ele></ele><time>2016-5-27T2:12:12Z</time></trkpt>
<trkpt lat="46.19594" lon="7.4566"><ele></ele><time>2016-5-27T2:12:15Z</time></trkpt>
<trkpt lat="46.19599" lon="7.45685"><ele></ele><time>2016-5-27T2:12:18Z</time></trkpt>
<trkpt lat="46.19605" lon="7.4571"><ele></ele><time>2016-5-27T2:12:21Z</time></trkpt>
<trkpt lat="46.19608" lon="7.4572"><ele></ele><time>2016-5-27T2:12:24Z</time></trkpt>
<trkpt lat="46.19612" lon="7.45727"><ele></ele><time>2016-5-27T2:12:27Z</time></trkpt>
<trkpt lat="46.19621" lon="7.45748"><ele></ele><time>2016-5-27T2:12:30Z</time></trkpt>
<trkpt lat="46.19626" lon="7.4576"><ele></ele><time>2016-5-27T2:12:33Z</time></trkpt>
<trkpt lat="46.19625" lon="7.45772"><ele></ele><time>2016-5-27T2:12:36Z</time></trkpt>
<trkpt lat="46.19628" lon="7.45798"><ele></ele><time>2016-5-27T2:12:39Z</time></trkpt>
<trkpt lat="46.19637" lon="7.45808"><ele></ele><time>2016-5-27T2:12:42Z</time></trkpt>
<trkpt lat="46.19639" lon="7.45801"><ele></ele><time>2016-5-27T2:12:45Z</time></trkpt>
<trkpt lat="46.19635" lon="7.45776"><ele></ele><time>2016-5-27T2:12:48Z</time></trkpt>
<trkpt lat="46.19632" lon="7.45765"><ele></ele><time>2016-5-27T2:12:51Z</time></trkpt>
<trkpt lat="46.19631" lon="7.45744"><ele></ele><time>2016-5-27T2:12:54Z</time></trkpt>
<trkpt lat="46.19636" lon="7.45719"><ele></ele><time>2016-5-27T2:12:57Z</time></trkpt>
<trkpt lat="46.19639" lon="7.45712"><ele></ele><time>2016-5-27T2:13:0Z</time></trkpt>
<trkpt lat="46.19639" lon="7.45708"><ele></ele><time>2016-5-27T2:13:3Z</time></trkpt>
<trkpt lat="46.19646" lon="7.45684"><ele></ele><time>2016-5-27T2:13:6Z</time></trkpt>
<trkpt lat="46.1965" lon="7.45675"><ele></ele><time>2016-5-27T2:13:9Z</time></trkpt>
<trkpt lat="46.19659" lon="7.45657"><ele></ele><time>2016-5-27T2:13:12Z</time></trkpt>
<trkpt lat="46.19664" lon="7.45645"><ele></ele><time>2016-5-27T2:13:15Z</time></trkpt>
<trkpt lat="46.19668" lon="7.45628"><ele></ele><time>2016-5-27T2:13:18Z</time></trkpt>
<trkpt lat="46.19668" lon="7.45601"><ele></ele><time>2016-5-27T2:13:21Z</time></trkpt>
<trkpt lat="46.19669" lon="7.45583"><ele></ele><time>2016-5-27T2:13:24Z</time></trkpt>
<trkpt lat="46.19668" lon="7.45561"><ele></ele><time>2016-5-27T2:13:27Z</time></trkpt>
<trkpt lat="46.19662" lon="7.45536"><ele></ele><time>2016-5-27T2:13:30Z</time></trkpt>
<trkpt lat="46.19659" lon="7.45521"><ele></ele><time>2016-5-27T2:13:33Z</time></trkpt>
<trkpt lat="46.19656" lon="7.45495"><ele></ele><time>2016-5-27T2:13:36Z</time></trkpt>
<trkpt lat="46.19656" lon="7.45487"><ele></ele><time>2016-5-27T2:13:39Z</time></trkpt>
<trkpt lat="46.19655" lon="7.4548"><ele></ele><time>2016-5-27T2:13:42Z</time></trkpt>
<trkpt lat="46.19656" lon="7.45476"><ele></ele><time>2016-5-27T2:13:45Z</time></trkpt>
<trkpt lat="46.19657" lon="7.45468"><ele></ele><time>2016-5-27T2:13:48Z</time></trkpt>
<trkpt lat="46.1966" lon="7.45458"><ele></ele><time>2016-5-27T2:13:51Z</time></trkpt>
<trkpt lat="46.19668" lon="7.45434"><ele></ele><time>2016-5-27T2:13:54Z</time></trkpt>
<trkpt lat="46.1967" lon="7.45426"><ele></ele><time>2016-5-27T2:13:57Z</time></trkpt>
<trkpt lat="46.19674" lon="7.45414"><ele></ele><time>2016-5-27T2:14:0Z</time></trkpt>
<trkpt lat="46.19682" lon="7.45391"><ele></ele><time>2016-5-27T2:14:3Z</time></trkpt>
<trkpt lat="46.19692" lon="7.45367"><ele></ele><time>2016-5-27T2:14:6Z</time></trkpt>
<trkpt lat="46.19703" lon="7.45345"><ele></ele><time>2016-5-27T2:14:9Z</time></trkpt>
<trkpt lat="46.19712" lon="7.45326"><ele></ele><time>2016-5-27T2:14:12Z</time></trkpt>
<trkpt lat="46.19721" lon="7.45304"><ele></ele><time>2016-5-27T2:14:15Z</time></trkpt>
<trkpt lat="46.19736" lon="7.4528"><ele></ele><time>2016-5-27T2:14:18Z</time></trkpt>
<trkpt lat="46.19739" lon="7.45275"><ele></ele><time>2016-5-27T2:14:21Z</time></trkpt>
<trkpt lat="46.19743" lon="7.45268"><ele></ele><time>2016-5-27T2:14:24Z</time></trkpt>
<trkpt lat="46.19755" lon="7.45255"><ele></ele><time>2016-5-27T2:14:27Z</time></trkpt>
<trkpt lat="46.19766" lon="7.45234"><ele></ele><time>2016-5-27T2:14:30Z</time></trkpt>
<trkpt lat="46.1978" lon="7.45217"><ele></ele><time>2016-5-27T2:14:33Z</time></trkpt>
<trkpt lat="46.19785" lon="7.45205"><ele></ele><time>2016-5-27T2:14:36Z</time></trkpt>
<trkpt lat="46.19797" lon="7.45179"><ele></ele><time>2016-5-27T2:14:39Z</time></trkpt>
<trkpt lat="46.19809" lon="7.45159"><ele></ele><time>2016-5-27T2:14:42Z</time></trkpt>
<trkpt lat="46.19817" lon="7.45146"><ele></ele><time>2016-5-27T2:14:45Z</time></trkpt>
<trkpt lat="46.19821" lon="7.45138"><ele></ele><time>2016-5-27T2:14:48Z</time></trkpt>
<trkpt lat="46.19831" lon="7.45119"><ele></ele><time>2016-5-27T2:14:51Z</time></trkpt>
<trkpt lat="46.19834" lon="7.45112"><ele></ele><time>2016-5-27T2:14:54Z</time></trkpt>
<trkpt lat="46.19834" lon="7.45111"><ele></ele><time>2016-5-27T2:14:57Z</time></trkpt>
<trkpt lat="46.19838" lon="7.45106"><ele></ele><time>2016-5-27T2:15:0Z</time></trkpt>
<trkpt lat="46.19846" lon="7.4509"><ele></ele><time>2016-5-27T2:15:3Z</time></trkpt>
<trkpt lat="46.19856" lon="7.45084"><ele></ele><time>2016-5-27T2:15:6Z</time></trkpt>
<trkpt lat="46.1986" lon="7.45091"><ele></ele><time>2016-5-27T2:15:9Z</time></trkpt>
<trkpt lat="46.19865" lon="7.45088"><ele></ele><time>2016-5-27T2:15:12Z</time></trkpt>
<trkpt lat="46.19862" lon="7.4508"><ele></ele><time>2016-5-27T2:15:15Z</time></trkpt>
<trkpt lat="46.19862" lon="7.45074"><ele></ele><time>2016-5-27T2:15:18Z</time></trkpt>
<trkpt lat="46.1987" lon="7.45056"><ele></ele><time>2016-5-27T2:15:21Z</time></trkpt>
<trkpt lat="46.19876" lon="7.45049"><ele></ele><time>2016-5-27T2:15:24Z</time></trkpt>
<trkpt lat="46.19881" lon="7.45043"><ele></ele><time>2016-5-27T2:15:27Z</time></trkpt>
<trkpt lat="46.19887" lon="7.45036"><ele></ele><time>2016-5-27T2:15:30Z</time></trkpt>
<trkpt lat="46.19888" lon="7.45034"><ele></ele><time>2016-5-27T2:15:33Z</time></trkpt>
<trkpt lat="46.19891" lon="7.45031"><ele></ele><time>2016-5-27T2:15:36Z</time></trkpt>
<trkpt lat="46.19908" lon="7.4502"><ele></ele><time>2016-5-27T2:15:39Z</time></trkpt>
<trkpt lat="46.19914" lon="7.45019"><ele></ele><time>2016-5-27T2:15:42Z</time></trkpt>
<trkpt lat="46.19919" lon="7.45023"><ele></ele><time>2016-5-27T2:15:45Z</time></trkpt>
<trkpt lat="46.19939" lon="7.45012"><ele></ele><time>2016-5-27T2:15:48Z</time></trkpt>
<trkpt lat="46.19954" lon="7.44998"><ele></ele><time>2016-5-27T2:15:51Z</time></trkpt>
<trkpt lat="46.19962" lon="7.44989"><ele></ele><time>2016-5-27T2:15:54Z</time></trkpt>
<trkpt lat="46.19964" lon="7.44987"><ele></ele><time>2016-5-27T2:15:57Z</time></trkpt>
<trkpt lat="46.19979" lon="7.44984"><ele></ele><time>2016-5-27T2:16:0Z</time></trkpt>
<trkpt lat="46.19981" lon="7.44982"><ele></ele><time>2016-5-27T2:16:3Z</time></trkpt>
<trkpt lat="46.19984" lon="7.44981"><ele></ele><time>2016-5-27T2:16:6Z</time></trkpt>
<trkpt lat="46.19991" lon="7.44975"><ele></ele><time>2016-5-27T2:16:9Z</time></trkpt>
<trkpt lat="46.19996" lon="7.44969"><ele></ele><time>2016-5-27T2:16:12Z</time></trkpt>
<trkpt lat="46.2001" lon="7.44949"><ele></ele><time>2016-5-27T2:16:15Z</time></trkpt>
<trkpt lat="46.20015" lon="7.4493"><ele></ele><time>2016-5-27T2:16:18Z</time></trkpt>
<trkpt lat="46.2002" lon="7.44905"><ele></ele><time>2016-5-27T2:16:21Z</time></trkpt>
<trkpt lat="46.20021" lon="7.44885"><ele></ele><time>2016-5-27T2:16:24Z</time></trkpt>
<trkpt lat="46.20019" lon="7.44863"><ele></ele><time>2016-5-27T2:16:27Z</time></trkpt>
<trkpt lat="46.20017" lon="7.44852"><ele></ele><time>2016-5-27T2:16:30Z</time></trkpt>
<trkpt lat="46.2001" lon="7.44822"><ele></ele><time>2016-5-27T2:16:33Z</time></trkpt>
<trkpt lat="46.20001" lon="7.44796"><ele></ele><time>2016-5-27T2:16:36Z</time></trkpt>
<trkpt lat="46.2" lon="7.44789"><ele></ele><time>2016-5-27T2:16:39Z</time></trkpt>
<trkpt lat="46.20003" lon="7.4476"><ele></ele><time>2016-5-27T2:16:42Z</time></trkpt>
<trkpt lat="46.20011" lon="7.44734"><ele></ele><time>2016-5-27T2:16:45Z</time></trkpt>
<trkpt lat="46.2002" lon="7.44702"><ele></ele><time>2016-5-27T2:16:48Z</time></trkpt>
<trkpt lat="46.20025" lon="7.44677"><ele></ele><time>2016-5-27T2:16:51Z</time></trkpt>
<trkpt lat="46.2003" lon="7.44651"><ele></ele><time>2016-5-27T2:16:54Z</time></trkpt>
<trkpt lat="46.20031" lon="7.44638"><ele></ele><time>2016-5-27T2:16:57Z</time></trkpt>
<trkpt lat="46.20033" lon="7.44602"><ele></ele><time>2016-5-27T2:17:0Z</time></trkpt>
<trkpt lat="46.20035" lon="7.4458"><ele></ele><time>2016-5-27T2:17:3Z</time></trkpt>
<trkpt lat="46.20043" lon="7.44547"><ele></ele><time>2016-5-27T2:17:6Z</time></trkpt>
<trkpt lat="46.20051" lon="7.44523"><ele></ele><time>2016-5-27T2:17:9Z</time></trkpt>
<trkpt lat="46.20056" lon="7.44512"><ele></ele><time>2016-5-27T2:17:12Z</time></trkpt>
<trkpt lat="46.20072" lon="7.44482"><ele></ele><time>2016-5-27T2:17:15Z</time></trkpt>
<trkpt lat="46.20092" lon="7.44459"><ele></ele><time>2016-5-27T2:17:18Z</time></trkpt>
<trkpt lat="46.20097" lon="7.4445"><ele></ele><time>2016-5-27T2:17:21Z</time></trkpt>
<trkpt lat="46.20105" lon="7.44417"><ele></ele><time>2016-5-27T2:17:24Z</time></trkpt>
<trkpt lat="46.20109" lon="7.44382"><ele></ele><time>2016-5-27T2:17:27Z</time></trkpt>
<trkpt lat="46.20118" lon="7.44358"><ele></ele><time>2016-5-27T2:17:30Z</time></trkpt>
<trkpt lat="46.20123" lon="7.44346"><ele></ele><time>2016-5-27T2:17:33Z</time></trkpt>
<trkpt lat="46.20133" lon="7.4432"><ele></ele><time>2016-5-27T2:17:36Z</time></trkpt>
<trkpt lat="46.20139" lon="7.44307"><ele></ele><time>2016-5-27T2:17:39Z</time></trkpt>
<trkpt lat="46.20149" lon="7.44284"><ele></ele><time>2016-5-27T2:17:42Z</time></trkpt>
<trkpt lat="46.20163" lon="7.44255"><ele></ele><time>2016-5-27T2:17:45Z</time></trkpt>
<trkpt lat="46.20179" lon="7.44236"><ele></ele><time>2016-5-27T2:17:48Z</time></trkpt>
<trkpt lat="46.202" lon="7.4423"><ele></ele><time>2016-5-27T2:17:51Z</time></trkpt>
<trkpt lat="46.20214" lon="7.4423"><ele></ele><time>2016-5-27T2:17:54Z</time></trkpt>
<trkpt lat="46.20231" lon="7.44217"><ele></ele><time>2016-5-27T2:17:57Z</time></trkpt>
<trkpt lat="46.20235" lon="7.44207"><ele></ele><time>2016-5-27T2:18:0Z</time></trkpt>
<trkpt lat="46.20238" lon="7.44201"><ele></ele><time>2016-5-27T2:18:3Z</time></trkpt>
<trkpt lat="46.20241" lon="7.44195"><ele></ele><time>2016-5-27T2:18:6Z</time></trkpt>
<trkpt lat="46.20251" lon="7.44193"><ele></ele><time>2016-5-27T2:18:9Z</time></trkpt>
<trkpt lat="46.20263" lon="7.442"><ele></ele><time>2016-5-27T2:18:12Z</time></trkpt>
<trkpt lat="46.20269" lon="7.44192"><ele></ele><time>2016-5-27T2:18:15Z</time></trkpt>
<trkpt lat="46.20266" lon="7.44181"><ele></ele><time>2016-5-27T2:18:18Z</time></trkpt>
<trkpt lat="46.20262" lon="7.44169"><ele></ele><time>2016-5-27T2:18:21Z</time></trkpt>
<trkpt lat="46.2026" lon="7.44161"><ele></ele><time>2016-5-27T2:18:24Z</time></trkpt>
<trkpt lat="46.20253" lon="7.44151"><ele></ele><time>2016-5-27T2:18:27Z</time></trkpt>
<trkpt lat="46.20241" lon="7.44135"><ele></ele><time>2016-5-27T2:18:30Z</time></trkpt>
<trkpt lat="46.20239" lon="7.44133"><ele></ele><time>2016-5-27T2:18:33Z</time></trkpt>
<trkpt lat="46.20235" lon="7.44129"><ele></ele><time>2016-5-27T2:18:36Z</time></trkpt>
<trkpt lat="46.20234" lon="7.44126"><ele></ele><time>2016-5-27T2:18:39Z</time></trkpt>
<trkpt lat="46.20227" lon="7.44119"><ele></ele><time>2016-5-27T2:18:42Z</time></trkpt>
<trkpt lat="46.20211" lon="7.44105"><ele></ele><time>2016-5-27T2:18:45Z</time></trkpt>
<trkpt lat="46.20203" lon="7.44098"><ele></ele><time>2016-5-27T2:18:48Z</time></trkpt>
<trkpt lat="46.20184" lon="7.44078"><ele></ele><time>2016-5-27T2:18:51Z</time></trkpt>
<trkpt lat="46.20164" lon="7.44066"><ele></ele><time>2016-5-27T2:18:54Z</time></trkpt>
<trkpt lat="46.20158" lon="7.4406"><ele></ele><time>2016-5-27T2:18:57Z</time></trkpt>
<trkpt lat="46.20153" lon="7.44055"><ele></ele><time>2016-5-27T2:19:0Z</time></trkpt>
<trkpt lat="46.20142" lon="7.44043"><ele></ele><time>2016-5-27T2:19:3Z</time></trkpt>
<trkpt lat="46.20133" lon="7.44035"><ele></ele><time>2016-5-27T2:19:6Z</time></trkpt>
<trkpt lat="46.20132" lon="7.44032"><ele></ele><time>2016-5-27T2:19:9Z</time></trkpt>
<trkpt lat="46.20139" lon="7.44024"><ele></ele><time>2016-5-27T2:19:12Z</time></trkpt>
<trkpt lat="46.20158" lon="7.44013"><ele></ele><time>2016-5-27T2:19:15Z</time></trkpt>
<trkpt lat="46.20176" lon="7.44002"><ele></ele><time>2016-5-27T2:19:18Z</time></trkpt>
<trkpt lat="46.20178" lon="7.44"><ele></ele><time>2016-5-27T2:19:21Z</time></trkpt>
<trkpt lat="46.20189" lon="7.43997"><ele></ele><time>2016-5-27T2:19:24Z</time></trkpt>
<trkpt lat="46.20195" lon="7.43994"><ele></ele><time>2016-5-27T2:19:27Z</time></trkpt>
<trkpt lat="46.20197" lon="7.43994"><ele></ele><time>2016-5-27T2:19:30Z</time></trkpt>
<trkpt lat="46.20197" lon="7.43994"><ele></ele><time>2016-5-27T2:19:33Z</time></trkpt>
<trkpt lat="46.20197" lon="7.43993"><ele></ele><time>2016-5-27T2:19:36Z</time></trkpt>
<trkpt lat="46.20184" lon="7.44"><ele></ele><time>2016-5-27T2:19:39Z</time></trkpt>
<trkpt lat="46.20168" lon="7.44009"><ele></ele><time>2016-5-27T2:19:42Z</time></trkpt>
<trkpt lat="46.20152" lon="7.44014"><ele></ele><time>2016-5-27T2:19:45Z</time></trkpt>
<trkpt lat="46.20128" lon="7.44024"><ele></ele><time>2016-5-27T2:19:48Z</time></trkpt>
<trkpt lat="46.20112" lon="7.44011"><ele></ele><time>2016-5-27T2:19:51Z</time></trkpt>
<trkpt lat="46.20102" lon="7.44"><ele></ele><time>2016-5-27T2:19:54Z</time></trkpt>
<trkpt lat="46.20118" lon="7.43986"><ele></ele><time>2016-5-27T2:19:57Z</time></trkpt>
<trkpt lat="46.20101" lon="7.43972"><ele></ele><time>2016-5-27T2:20:0Z</time></trkpt>
<trkpt lat="46.20089" lon="7.4397"><ele></ele><time>2016-5-27T2:20:3Z</time></trkpt>
<trkpt lat="46.201" lon="7.43948"><ele></ele><time>2016-5-27T2:20:6Z</time></trkpt>
<trkpt lat="46.20115" lon="7.43933"><ele></ele><time>2016-5-27T2:20:9Z</time></trkpt>
<trkpt lat="46.20108" lon="7.43923"><ele></ele><time>2016-5-27T2:20:12Z</time></trkpt>
<trkpt lat="46.20095" lon="7.4392"><ele></ele><time>2016-5-27T2:20:15Z</time></trkpt>
<trkpt lat="46.20079" lon="7.43909"><ele></ele><time>2016-5-27T2:20:18Z</time></trkpt>
<trkpt lat="46.20084" lon="7.439"><ele></ele><time>2016-5-27T2:20:21Z</time></trkpt>
<trkpt lat="46.20095" lon="7.43878"><ele></ele><time>2016-5-27T2:20:24Z</time></trkpt>
<trkpt lat="46.20103" lon="7.43852"><ele></ele><time>2016-5-27T2:20:27Z</time></trkpt>
<trkpt lat="46.20104" lon="7.43848"><ele></ele><time>2016-5-27T2:20:30Z</time></trkpt>
<trkpt lat="46.20099" lon="7.43818"><ele></ele><time>2016-5-27T2:20:33Z</time></trkpt>
<trkpt lat="46.20094" lon="7.43784"><ele></ele><time>2016-5-27T2:20:36Z</time></trkpt>
<trkpt lat="46.20087" lon="7.43752"><ele></ele><time>2016-5-27T2:20:39Z</time></trkpt>
<trkpt lat="46.20086" lon="7.43744"><ele></ele><time>2016-5-27T2:20:42Z</time></trkpt>
<trkpt lat="46.20084" lon="7.43727"><ele></ele><time>2016-5-27T2:20:45Z</time></trkpt>
<trkpt lat="46.20082" lon="7.43718"><ele></ele><time>2016-5-27T2:20:48Z</time></trkpt>
<trkpt lat="46.20073" lon="7.43696"><ele></ele><time>2016-5-27T2:20:51Z</time></trkpt>
<trkpt lat="46.20068" lon="7.43689"><ele></ele><time>2016-5-27T2:20:54Z</time></trkpt>
<trkpt lat="46.20055" lon="7.43667"><ele></ele><time>2016-5-27T2:20:57Z</time></trkpt>
<trkpt lat="46.20042" lon="7.43646"><ele></ele><time>2016-5-27T2:21:0Z</time></trkpt>
<trkpt lat="46.20039" lon="7.43638"><ele></ele><time>2016-5-27T2:21:3Z</time></trkpt>
<trkpt lat="46.20031" lon="7.43613"><ele></ele><time>2016-5-27T2:21:6Z</time></trkpt>
<trkpt lat="46.20025" lon="7.43587"><ele></ele><time>2016-5-27T2:21:9Z</time></trkpt>
<trkpt lat="46.20022" lon="7.43579"><ele></ele><time>2016-5-27T2:21:12Z</time></trkpt>
<trkpt lat="46.2001" lon="7.43553"><ele></ele><time>2016-5-27T2:21:15Z</time></trkpt>
<trkpt lat="46.20012" lon="7.43521"><ele></ele><time>2016-5-27T2:21:18Z</time></trkpt>
<trkpt lat="46.20014" lon="7.43512"><ele></ele><time>2016-5-27T2:21:21Z</time></trkpt>
<trkpt lat="46.20015" lon="7.43485"><ele></ele><time>2016-5-27T2:21:24Z</time></trkpt>
<trkpt lat="46.20013" lon="7.43458"><ele></ele><time>2016-5-27T2:21:27Z</time></trkpt>
<trkpt lat="46.20008" lon="7.4343"><ele></ele><time>2016-5-27T2:21:30Z</time></trkpt>
<trkpt lat="46.20008" lon="7.43424"><ele></ele><time>2016-5-27T2:21:33Z</time></trkpt>
<trkpt lat="46.20022" lon="7.43405"><ele></ele><time>2016-5-27T2:21:36Z</time></trkpt>
<trkpt lat="46.20041" lon="7.4341"><ele></ele><time>2016-5-27T2:21:39Z</time></trkpt>
<trkpt lat="46.20067" lon="7.43418"><ele></ele><time>2016-5-27T2:21:42Z</time></trkpt>
<trkpt lat="46.20077" lon="7.43419"><ele></ele><time>2016-5-27T2:21:45Z</time></trkpt>
<trkpt lat="46.20102" lon="7.43423"><ele></ele><time>2016-5-27T2:21:48Z</time></trkpt>
<trkpt lat="46.20123" lon="7.43439"><ele></ele><time>2016-5-27T2:21:51Z</time></trkpt>
<trkpt lat="46.20134" lon="7.43451"><ele></ele><time>2016-5-27T2:21:54Z</time></trkpt>
<trkpt lat="46.20138" lon="7.43457"><ele></ele><time>2016-5-27T2:21:57Z</time></trkpt>
<trkpt lat="46.20151" lon="7.43476"><ele></ele><time>2016-5-27T2:22:0Z</time></trkpt>
<trkpt lat="46.20156" lon="7.43482"><ele></ele><time>2016-5-27T2:22:3Z</time></trkpt>
<trkpt lat="46.20158" lon="7.43486"><ele></ele><time>2016-5-27T2:22:6Z</time></trkpt>
<trkpt lat="46.20161" lon="7.43491"><ele></ele><time>2016-5-27T2:22:9Z</time></trkpt>
<trkpt lat="46.20163" lon="7.43495"><ele></ele><time>2016-5-27T2:22:12Z</time></trkpt>
<trkpt lat="46.20166" lon="7.435"><ele></ele><time>2016-5-27T2:22:15Z</time></trkpt>
<trkpt lat="46.20174" lon="7.43514"><ele></ele><time>2016-5-27T2:22:18Z</time></trkpt>
<trkpt lat="46.20175" lon="7.43518"><ele></ele><time>2016-5-27T2:22:21Z</time></trkpt>
<trkpt lat="46.20183" lon="7.43542"><ele></ele><time>2016-5-27T2:22:24Z</time></trkpt>
<trkpt lat="46.20191" lon="7.43562"><ele></ele><time>2016-5-27T2:22:27Z</time></trkpt>
<trkpt lat="46.20193" lon="7.43566"><ele></ele><time>2016-5-27T2:22:30Z</time></trkpt>
<trkpt lat="46.20194" lon="7.43572"><ele></ele><time>2016-5-27T2:22:33Z</time></trkpt>
<trkpt lat="46.20202" lon="7.4359"><ele></ele><time>2016-5-27T2:22:36Z</time></trkpt>
<trkpt lat="46.20205" lon="7.43598"><ele></ele><time>2016-5-27T2:22:39Z</time></trkpt>
<trkpt lat="46.20209" lon="7.43617"><ele></ele><time>2016-5-27T2:22:42Z</time></trkpt>
<trkpt lat="46.20217" lon="7.43642"><ele></ele><time>2016-5-27T2:22:45Z</time></trkpt>
<trkpt lat="46.20221" lon="7.43648"><ele></ele><time>2016-5-27T2:22:48Z</time></trkpt>
<trkpt lat="46.20227" lon="7.43656"><ele></ele><time>2016-5-27T2:22:51Z</time></trkpt>
<trkpt lat="46.20237" lon="7.43672"><ele></ele><time>2016-5-27T2:22:54Z</time></trkpt>
<trkpt lat="46.20245" lon="7.43686"><ele></ele><time>2016-5-27T2:22:57Z</time></trkpt>
<trkpt lat="46.20248" lon="7.43689"><ele></ele><time>2016-5-27T2:23:0Z</time></trkpt>
<trkpt lat="46.20253" lon="7.43694"><ele></ele><time>2016-5-27T2:23:3Z</time></trkpt>
<trkpt lat="46.20272" lon="7.43716"><ele></ele><time>2016-5-27T2:23:6Z</time></trkpt>
<trkpt lat="46.2028" lon="7.43735"><ele></ele><time>2016-5-27T2:23:9Z</time></trkpt>
<trkpt lat="46.20289" lon="7.43757"><ele></ele><time>2016-5-27T2:23:12Z</time></trkpt>
<trkpt lat="46.20298" lon="7.4378"><ele></ele><time>2016-5-27T2:23:15Z</time></trkpt>
<trkpt lat="46.20304" lon="7.43788"><ele></ele><time>2016-5-27T2:23:18Z</time></trkpt>
<trkpt lat="46.20319" lon="7.43802"><ele></ele><time>2016-5-27T2:23:21Z</time></trkpt>
<trkpt lat="46.20336" lon="7.43816"><ele></ele><time>2016-5-27T2:23:24Z</time></trkpt>
<trkpt lat="46.20348" lon="7.43836"><ele></ele><time>2016-5-27T2:23:27Z</time></trkpt>
<trkpt lat="46.20368" lon="7.43862"><ele></ele><time>2016-5-27T2:23:30Z</time></trkpt>
<trkpt lat="46.2038" lon="7.43883"><ele></ele><time>2016-5-27T2:23:33Z</time></trkpt>
<trkpt lat="46.20395" lon="7.43901"><ele></ele><time>2016-5-27T2:23:36Z</time></trkpt>
<trkpt lat="46.20412" lon="7.43914"><ele></ele><time>2016-5-27T2:23:39Z</time></trkpt>
<trkpt lat="46.20429" lon="7.43925"><ele></ele><time>2016-5-27T2:23:42Z</time></trkpt>
<trkpt lat="46.20442" lon="7.43943"><ele></ele><time>2016-5-27T2:23:45Z</time></trkpt>
<trkpt lat="46.20458" lon="7.43962"><ele></ele><time>2016-5-27T2:23:48Z</time></trkpt>
<trkpt lat="46.20465" lon="7.43969"><ele></ele><time>2016-5-27T2:23:51Z</time></trkpt>
<trkpt lat="46.20485" lon="7.43981"><ele></ele><time>2016-5-27T2:23:54Z</time></trkpt>
<trkpt lat="46.20496" lon="7.43987"><ele></ele><time>2016-5-27T2:23:57Z</time></trkpt>
<trkpt lat="46.20515" lon="7.43998"><ele></ele><time>2016-5-27T2:24:0Z</time></trkpt>
<trkpt lat="46.20535" lon="7.44012"><ele></ele><time>2016-5-27T2:24:3Z</time></trkpt>
<trkpt lat="46.20552" lon="7.44024"><ele></ele><time>2016-5-27T2:24:6Z</time></trkpt>
<trkpt lat="46.20569" lon="7.44036"><ele></ele><time>2016-5-27T2:24:9Z</time></trkpt>
<trkpt lat="46.20572" lon="7.44036"><ele></ele><time>2016-5-27T2:24:12Z</time></trkpt>
<trkpt lat="46.20567" lon="7.44011"><ele></ele><time>2016-5-27T2:24:15Z</time></trkpt>
<trkpt lat="46.20564" lon="7.44"><ele></ele><time>2016-5-27T2:24:18Z</time></trkpt>
<trkpt lat="46.20562" lon="7.43993"><ele></ele><time>2016-5-27T2:24:21Z</time></trkpt>
<trkpt lat="46.20559" lon="7.43981"><ele></ele><time>2016-5-27T2:24:24Z</time></trkpt>
<trkpt lat="46.20566" lon="7.43973"><ele></ele><time>2016-5-27T2:24:27Z</time></trkpt>
<trkpt lat="46.20574" lon="7.43965"><ele></ele><time>2016-5-27T2:24:30Z</time></trkpt>
<trkpt lat="46.20578" lon="7.43961"><ele></ele><time>2016-5-27T2:24:33Z</time></trkpt>
<trkpt lat="46.20582" lon="7.4396"><ele></ele><time>2016-5-27T2:24:36Z</time></trkpt>
<trkpt lat="46.20592" lon="7.43956"><ele></ele><time>2016-5-27T2:24:39Z</time></trkpt>
<trkpt lat="46.20606" lon="7.43954"><ele></ele><time>2016-5-27T2:24:42Z</time></trkpt>
<trkpt lat="46.20613" lon="7.43953"><ele></ele><time>2016-5-27T2:24:45Z</time></trkpt>
<trkpt lat="46.20616" lon="7.43953"><ele></ele><time>2016-5-27T2:24:48Z</time></trkpt>
<trkpt lat="46.20621" lon="7.43956"><ele></ele><time>2016-5-27T2:24:51Z</time></trkpt>
<trkpt lat="46.20623" lon="7.43963"><ele></ele><time>2016-5-27T2:24:54Z</time></trkpt>
<trkpt lat="46.20637" lon="7.43981"><ele></ele><time>2016-5-27T2:24:57Z</time></trkpt>
<trkpt lat="46.20639" lon="7.43984"><ele></ele><time>2016-5-27T2:25:0Z</time></trkpt>
<trkpt lat="46.20641" lon="7.43992"><ele></ele><time>2016-5-27T2:25:3Z</time></trkpt>
<trkpt lat="46.20641" lon="7.43994"><ele></ele><time>2016-5-27T2:25:6Z</time></trkpt>
<trkpt lat="46.20641" lon="7.43994"><ele></ele><time>2016-5-27T2:25:9Z</time></trkpt>
</trkseg></trk></gpx>